<?xml version="1.0" encoding="UTF-8" standalone="no" ?>
<gpx xmlns="http://www.topografix.com/GPX/1/1" xmlns:xsi="http://www.w3.org/2001/XMLSchema-instance" xsi:schemaLocation="http://www.topografix.com/GPX/1/1 http://www.topografix.com/GPX/1/1/gpx.xsd" version="1.1" creator="VisuGPX - https://www.visugpx.com">
  <metadata>
    <name>28_km_rando</name>
  </metadata>
  <trk>
    <name><![CDATA[28 km rando 2026-23051188]]></name>
    <extensions>
      <line xmlns="http://www.topografix.com/GPX/gpx_style/0/2">
        <color>0000FF</color>
        <width>4</width>
      </line>
    </extensions>
    <trkseg>
      <trkpt lat="45.99897" lon="4.17637">
        <ele>435</ele>
        <time>2026-02-01T12:05:05Z</time>
      </trkpt>
      <trkpt lat="45.9985" lon="4.1761">
        <ele>436</ele>
        <time>2026-02-01T12:06:13Z</time>
      </trkpt>
      <trkpt lat="45.99824" lon="4.1759">
        <ele>436</ele>
        <time>2026-02-01T12:06:52Z</time>
      </trkpt>
      <trkpt lat="45.99815" lon="4.17544">
        <ele>435</ele>
        <time>2026-02-01T12:07:36Z</time>
      </trkpt>
      <trkpt lat="45.99805" lon="4.1751">
        <ele>433</ele>
        <time>2026-02-01T12:08:10Z</time>
      </trkpt>
      <trkpt lat="45.99799" lon="4.17492">
        <ele>433</ele>
        <time>2026-02-01T12:08:29Z</time>
      </trkpt>
      <trkpt lat="45.99796" lon="4.17466">
        <ele>432</ele>
        <time>2026-02-01T12:08:53Z</time>
      </trkpt>
      <trkpt lat="45.99748" lon="4.17414">
        <ele>432</ele>
        <time>2026-02-01T12:10:14Z</time>
      </trkpt>
      <trkpt lat="45.99701" lon="4.17378">
        <ele>432</ele>
        <time>2026-02-01T12:11:25Z</time>
      </trkpt>
      <trkpt lat="45.99688" lon="4.17363">
        <ele>432</ele>
        <time>2026-02-01T12:11:47Z</time>
      </trkpt>
      <trkpt lat="45.99676" lon="4.17344">
        <ele>432</ele>
        <time>2026-02-01T12:12:11Z</time>
      </trkpt>
      <trkpt lat="45.99674" lon="4.17334">
        <ele>432</ele>
        <time>2026-02-01T12:12:20Z</time>
      </trkpt>
      <trkpt lat="45.99674" lon="4.17274">
        <ele>431</ele>
        <time>2026-02-01T12:13:16Z</time>
      </trkpt>
      <trkpt lat="45.99672" lon="4.17241">
        <ele>430</ele>
        <time>2026-02-01T12:13:47Z</time>
      </trkpt>
      <trkpt lat="45.9967" lon="4.17227">
        <ele>430</ele>
        <time>2026-02-01T12:14:00Z</time>
      </trkpt>
      <trkpt lat="45.99668" lon="4.1722">
        <ele>430</ele>
        <time>2026-02-01T12:14:07Z</time>
      </trkpt>
      <trkpt lat="45.99664" lon="4.17206">
        <ele>430</ele>
        <time>2026-02-01T12:14:21Z</time>
      </trkpt>
      <trkpt lat="45.99656" lon="4.17188">
        <ele>429</ele>
        <time>2026-02-01T12:14:41Z</time>
      </trkpt>
      <trkpt lat="45.99648" lon="4.17137">
        <ele>429</ele>
        <time>2026-02-01T12:15:29Z</time>
      </trkpt>
      <trkpt lat="45.99627" lon="4.17082">
        <ele>428</ele>
        <time>2026-02-01T12:16:27Z</time>
      </trkpt>
      <trkpt lat="45.99614" lon="4.17046">
        <ele>427</ele>
        <time>2026-02-01T12:17:05Z</time>
      </trkpt>
      <trkpt lat="45.99628" lon="4.16948">
        <ele>426</ele>
        <time>2026-02-01T12:18:38Z</time>
      </trkpt>
      <trkpt lat="45.99631" lon="4.16905">
        <ele>425</ele>
        <time>2026-02-01T12:19:18Z</time>
      </trkpt>
      <trkpt lat="45.99631" lon="4.16905">
        <ele>425</ele>
        <time>2026-02-01T12:19:18Z</time>
      </trkpt>
      <trkpt lat="45.99614" lon="4.16911">
        <ele>425</ele>
        <time>2026-02-01T12:19:41Z</time>
      </trkpt>
      <trkpt lat="45.99594" lon="4.16914">
        <ele>425</ele>
        <time>2026-02-01T12:20:08Z</time>
      </trkpt>
      <trkpt lat="45.99575" lon="4.16913">
        <ele>424</ele>
        <time>2026-02-01T12:20:33Z</time>
      </trkpt>
      <trkpt lat="45.99555" lon="4.16911">
        <ele>424</ele>
        <time>2026-02-01T12:21:00Z</time>
      </trkpt>
      <trkpt lat="45.99531" lon="4.16904">
        <ele>422</ele>
        <time>2026-02-01T12:21:33Z</time>
      </trkpt>
      <trkpt lat="45.99521" lon="4.16899">
        <ele>422</ele>
        <time>2026-02-01T12:21:47Z</time>
      </trkpt>
      <trkpt lat="45.99498" lon="4.1689">
        <ele>421</ele>
        <time>2026-02-01T12:22:19Z</time>
      </trkpt>
      <trkpt lat="45.99479" lon="4.16889">
        <ele>419</ele>
        <time>2026-02-01T12:22:44Z</time>
      </trkpt>
      <trkpt lat="45.99448" lon="4.16892">
        <ele>418</ele>
        <time>2026-02-01T12:23:26Z</time>
      </trkpt>
      <trkpt lat="45.99448" lon="4.16897">
        <ele>418</ele>
        <time>2026-02-01T12:23:30Z</time>
      </trkpt>
      <trkpt lat="45.99428" lon="4.16903">
        <ele>417</ele>
        <time>2026-02-01T12:23:57Z</time>
      </trkpt>
      <trkpt lat="45.99415" lon="4.16904">
        <ele>416</ele>
        <time>2026-02-01T12:24:15Z</time>
      </trkpt>
      <trkpt lat="45.99343" lon="4.16912">
        <ele>413</ele>
        <time>2026-02-01T12:25:51Z</time>
      </trkpt>
      <trkpt lat="45.99331" lon="4.16912">
        <ele>413</ele>
        <time>2026-02-01T12:26:07Z</time>
      </trkpt>
      <trkpt lat="45.99303" lon="4.16902">
        <ele>411</ele>
        <time>2026-02-01T12:26:46Z</time>
      </trkpt>
      <trkpt lat="45.99302" lon="4.16899">
        <ele>411</ele>
        <time>2026-02-01T12:26:49Z</time>
      </trkpt>
      <trkpt lat="45.99301" lon="4.16883">
        <ele>410</ele>
        <time>2026-02-01T12:27:04Z</time>
      </trkpt>
      <trkpt lat="45.99282" lon="4.16762">
        <ele>405</ele>
        <time>2026-02-01T12:28:59Z</time>
      </trkpt>
      <trkpt lat="45.99257" lon="4.16591">
        <ele>397</ele>
        <time>2026-02-01T12:31:41Z</time>
      </trkpt>
      <trkpt lat="45.99251" lon="4.16562">
        <ele>396</ele>
        <time>2026-02-01T12:32:09Z</time>
      </trkpt>
      <trkpt lat="45.99239" lon="4.16536">
        <ele>395</ele>
        <time>2026-02-01T12:32:38Z</time>
      </trkpt>
      <trkpt lat="45.99223" lon="4.16512">
        <ele>394</ele>
        <time>2026-02-01T12:33:09Z</time>
      </trkpt>
      <trkpt lat="45.99203" lon="4.16496">
        <ele>393</ele>
        <time>2026-02-01T12:33:39Z</time>
      </trkpt>
      <trkpt lat="45.99194" lon="4.16492">
        <ele>393</ele>
        <time>2026-02-01T12:33:52Z</time>
      </trkpt>
      <trkpt lat="45.99204" lon="4.1649">
        <ele>393</ele>
        <time>2026-02-01T12:34:05Z</time>
      </trkpt>
      <trkpt lat="45.99264" lon="4.16499">
        <ele>393</ele>
        <time>2026-02-01T12:35:26Z</time>
      </trkpt>
      <trkpt lat="45.99305" lon="4.1652">
        <ele>393</ele>
        <time>2026-02-01T12:36:24Z</time>
      </trkpt>
      <trkpt lat="45.99336" lon="4.16543">
        <ele>394</ele>
        <time>2026-02-01T12:37:10Z</time>
      </trkpt>
      <trkpt lat="45.99373" lon="4.16555">
        <ele>397</ele>
        <time>2026-02-01T12:38:01Z</time>
      </trkpt>
      <trkpt lat="45.99415" lon="4.16539">
        <ele>398</ele>
        <time>2026-02-01T12:38:59Z</time>
      </trkpt>
      <trkpt lat="45.99455" lon="4.16511">
        <ele>398</ele>
        <time>2026-02-01T12:39:58Z</time>
      </trkpt>
      <trkpt lat="45.99471" lon="4.16508">
        <ele>398</ele>
        <time>2026-02-01T12:40:20Z</time>
      </trkpt>
      <trkpt lat="45.99492" lon="4.16507">
        <ele>399</ele>
        <time>2026-02-01T12:40:48Z</time>
      </trkpt>
      <trkpt lat="45.99501" lon="4.16507">
        <ele>400</ele>
        <time>2026-02-01T12:41:00Z</time>
      </trkpt>
      <trkpt lat="45.99502" lon="4.165">
        <ele>399</ele>
        <time>2026-02-01T12:41:06Z</time>
      </trkpt>
      <trkpt lat="45.99516" lon="4.16499">
        <ele>399</ele>
        <time>2026-02-01T12:41:25Z</time>
      </trkpt>
      <trkpt lat="45.99538" lon="4.1649">
        <ele>399</ele>
        <time>2026-02-01T12:41:56Z</time>
      </trkpt>
      <trkpt lat="45.99554" lon="4.16481">
        <ele>400</ele>
        <time>2026-02-01T12:42:19Z</time>
      </trkpt>
      <trkpt lat="45.9957" lon="4.1647">
        <ele>400</ele>
        <time>2026-02-01T12:42:42Z</time>
      </trkpt>
      <trkpt lat="45.9965" lon="4.16416">
        <ele>396</ele>
        <time>2026-02-01T12:44:40Z</time>
      </trkpt>
      <trkpt lat="45.99725" lon="4.16397">
        <ele>392</ele>
        <time>2026-02-01T12:46:22Z</time>
      </trkpt>
      <trkpt lat="45.99759" lon="4.16388">
        <ele>390</ele>
        <time>2026-02-01T12:47:08Z</time>
      </trkpt>
      <trkpt lat="45.99789" lon="4.16438">
        <ele>393</ele>
        <time>2026-02-01T12:48:09Z</time>
      </trkpt>
      <trkpt lat="45.99838" lon="4.16453">
        <ele>394</ele>
        <time>2026-02-01T12:49:16Z</time>
      </trkpt>
      <trkpt lat="45.99868" lon="4.16429">
        <ele>399</ele>
        <time>2026-02-01T12:50:02Z</time>
      </trkpt>
      <trkpt lat="45.99884" lon="4.16358">
        <ele>399</ele>
        <time>2026-02-01T12:51:11Z</time>
      </trkpt>
      <trkpt lat="45.99904" lon="4.16281">
        <ele>404</ele>
        <time>2026-02-01T12:52:27Z</time>
      </trkpt>
      <trkpt lat="45.99927" lon="4.16251">
        <ele>411</ele>
        <time>2026-02-01T12:53:09Z</time>
      </trkpt>
      <trkpt lat="45.99951" lon="4.16191">
        <ele>414</ele>
        <time>2026-02-01T12:54:13Z</time>
      </trkpt>
      <trkpt lat="45.99976" lon="4.1615">
        <ele>417</ele>
        <time>2026-02-01T12:55:03Z</time>
      </trkpt>
      <trkpt lat="46.00002" lon="4.1609">
        <ele>418</ele>
        <time>2026-02-01T12:56:09Z</time>
      </trkpt>
      <trkpt lat="46.00007" lon="4.16087">
        <ele>418</ele>
        <time>2026-02-01T12:56:16Z</time>
      </trkpt>
      <trkpt lat="46.00022" lon="4.16037">
        <ele>418</ele>
        <time>2026-02-01T12:57:07Z</time>
      </trkpt>
      <trkpt lat="46.00031" lon="4.15987">
        <ele>417</ele>
        <time>2026-02-01T12:57:54Z</time>
      </trkpt>
      <trkpt lat="46.0004" lon="4.15938">
        <ele>418</ele>
        <time>2026-02-01T12:58:41Z</time>
      </trkpt>
      <trkpt lat="46.00044" lon="4.15908">
        <ele>417</ele>
        <time>2026-02-01T12:59:10Z</time>
      </trkpt>
      <trkpt lat="46.0005" lon="4.15878">
        <ele>416</ele>
        <time>2026-02-01T12:59:39Z</time>
      </trkpt>
      <trkpt lat="46.00062" lon="4.15838">
        <ele>415</ele>
        <time>2026-02-01T13:00:19Z</time>
      </trkpt>
      <trkpt lat="46.00077" lon="4.158">
        <ele>414</ele>
        <time>2026-02-01T13:01:00Z</time>
      </trkpt>
      <trkpt lat="46.00129" lon="4.15709">
        <ele>413</ele>
        <time>2026-02-01T13:02:49Z</time>
      </trkpt>
      <trkpt lat="46.00153" lon="4.15671">
        <ele>413</ele>
        <time>2026-02-01T13:03:36Z</time>
      </trkpt>
      <trkpt lat="46.00167" lon="4.15635">
        <ele>412</ele>
        <time>2026-02-01T13:04:15Z</time>
      </trkpt>
      <trkpt lat="46.00173" lon="4.15624">
        <ele>412</ele>
        <time>2026-02-01T13:04:28Z</time>
      </trkpt>
      <trkpt lat="46.00191" lon="4.15603">
        <ele>413</ele>
        <time>2026-02-01T13:04:59Z</time>
      </trkpt>
      <trkpt lat="46.00216" lon="4.1558">
        <ele>414</ele>
        <time>2026-02-01T13:05:38Z</time>
      </trkpt>
      <trkpt lat="46.00337" lon="4.15521">
        <ele>414</ele>
        <time>2026-02-01T13:08:29Z</time>
      </trkpt>
      <trkpt lat="46.00371" lon="4.15497">
        <ele>412</ele>
        <time>2026-02-01T13:09:19Z</time>
      </trkpt>
      <trkpt lat="46.00415" lon="4.1547">
        <ele>407</ele>
        <time>2026-02-01T13:10:23Z</time>
      </trkpt>
      <trkpt lat="46.00445" lon="4.15455">
        <ele>405</ele>
        <time>2026-02-01T13:11:05Z</time>
      </trkpt>
      <trkpt lat="46.00482" lon="4.15445">
        <ele>405</ele>
        <time>2026-02-01T13:11:56Z</time>
      </trkpt>
      <trkpt lat="46.00491" lon="4.15441">
        <ele>405</ele>
        <time>2026-02-01T13:12:08Z</time>
      </trkpt>
      <trkpt lat="46.00501" lon="4.15436">
        <ele>405</ele>
        <time>2026-02-01T13:12:22Z</time>
      </trkpt>
      <trkpt lat="46.00548" lon="4.15403">
        <ele>407</ele>
        <time>2026-02-01T13:13:32Z</time>
      </trkpt>
      <trkpt lat="46.00549" lon="4.15397">
        <ele>406</ele>
        <time>2026-02-01T13:13:38Z</time>
      </trkpt>
      <trkpt lat="46.00549" lon="4.15388">
        <ele>406</ele>
        <time>2026-02-01T13:13:46Z</time>
      </trkpt>
      <trkpt lat="46.00543" lon="4.15374">
        <ele>406</ele>
        <time>2026-02-01T13:14:01Z</time>
      </trkpt>
      <trkpt lat="46.00535" lon="4.15355">
        <ele>405</ele>
        <time>2026-02-01T13:14:22Z</time>
      </trkpt>
      <trkpt lat="46.00534" lon="4.15348">
        <ele>405</ele>
        <time>2026-02-01T13:14:29Z</time>
      </trkpt>
      <trkpt lat="46.00534" lon="4.15338">
        <ele>404</ele>
        <time>2026-02-01T13:14:38Z</time>
      </trkpt>
      <trkpt lat="46.00545" lon="4.15309">
        <ele>405</ele>
        <time>2026-02-01T13:15:09Z</time>
      </trkpt>
      <trkpt lat="46.0056" lon="4.15253">
        <ele>406</ele>
        <time>2026-02-01T13:16:04Z</time>
      </trkpt>
      <trkpt lat="46.00564" lon="4.15227">
        <ele>406</ele>
        <time>2026-02-01T13:16:29Z</time>
      </trkpt>
      <trkpt lat="46.00525" lon="4.15195">
        <ele>408</ele>
        <time>2026-02-01T13:17:29Z</time>
      </trkpt>
      <trkpt lat="46.00515" lon="4.1519">
        <ele>408</ele>
        <time>2026-02-01T13:17:43Z</time>
      </trkpt>
      <trkpt lat="46.00456" lon="4.15135">
        <ele>408</ele>
        <time>2026-02-01T13:19:17Z</time>
      </trkpt>
      <trkpt lat="46.0039" lon="4.15077">
        <ele>406</ele>
        <time>2026-02-01T13:21:00Z</time>
      </trkpt>
      <trkpt lat="46.00379" lon="4.15065">
        <ele>405</ele>
        <time>2026-02-01T13:21:18Z</time>
      </trkpt>
      <trkpt lat="46.00293" lon="4.14945">
        <ele>398</ele>
        <time>2026-02-01T13:23:58Z</time>
      </trkpt>
      <trkpt lat="46.00286" lon="4.14939">
        <ele>398</ele>
        <time>2026-02-01T13:24:09Z</time>
      </trkpt>
      <trkpt lat="46.00253" lon="4.14911">
        <ele>397</ele>
        <time>2026-02-01T13:25:00Z</time>
      </trkpt>
      <trkpt lat="46.00209" lon="4.14871">
        <ele>397</ele>
        <time>2026-02-01T13:26:10Z</time>
      </trkpt>
      <trkpt lat="46.00201" lon="4.14867">
        <ele>396</ele>
        <time>2026-02-01T13:26:21Z</time>
      </trkpt>
      <trkpt lat="46.00184" lon="4.14863">
        <ele>396</ele>
        <time>2026-02-01T13:26:44Z</time>
      </trkpt>
      <trkpt lat="46.00177" lon="4.14863">
        <ele>396</ele>
        <time>2026-02-01T13:26:53Z</time>
      </trkpt>
      <trkpt lat="46.00154" lon="4.14867">
        <ele>395</ele>
        <time>2026-02-01T13:27:24Z</time>
      </trkpt>
      <trkpt lat="46.00142" lon="4.14866">
        <ele>394</ele>
        <time>2026-02-01T13:27:40Z</time>
      </trkpt>
      <trkpt lat="46.00122" lon="4.14858">
        <ele>394</ele>
        <time>2026-02-01T13:28:08Z</time>
      </trkpt>
      <trkpt lat="46.00116" lon="4.14853">
        <ele>394</ele>
        <time>2026-02-01T13:28:17Z</time>
      </trkpt>
      <trkpt lat="46.00109" lon="4.14843">
        <ele>394</ele>
        <time>2026-02-01T13:28:30Z</time>
      </trkpt>
      <trkpt lat="46.00103" lon="4.1483">
        <ele>394</ele>
        <time>2026-02-01T13:28:45Z</time>
      </trkpt>
      <trkpt lat="46.00084" lon="4.14778">
        <ele>395</ele>
        <time>2026-02-01T13:29:39Z</time>
      </trkpt>
      <trkpt lat="46.00062" lon="4.147">
        <ele>397</ele>
        <time>2026-02-01T13:30:57Z</time>
      </trkpt>
      <trkpt lat="46.00045" lon="4.14639">
        <ele>398</ele>
        <time>2026-02-01T13:31:58Z</time>
      </trkpt>
      <trkpt lat="46.00041" lon="4.14616">
        <ele>399</ele>
        <time>2026-02-01T13:32:20Z</time>
      </trkpt>
      <trkpt lat="46.00039" lon="4.14542">
        <ele>400</ele>
        <time>2026-02-01T13:33:29Z</time>
      </trkpt>
      <trkpt lat="46.00038" lon="4.14461">
        <ele>400</ele>
        <time>2026-02-01T13:34:44Z</time>
      </trkpt>
      <trkpt lat="46.00025" lon="4.14315">
        <ele>395</ele>
        <time>2026-02-01T13:37:00Z</time>
      </trkpt>
      <trkpt lat="46.00024" lon="4.14292">
        <ele>396</ele>
        <time>2026-02-01T13:37:22Z</time>
      </trkpt>
      <trkpt lat="46.00018" lon="4.14203">
        <ele>394</ele>
        <time>2026-02-01T13:38:45Z</time>
      </trkpt>
      <trkpt lat="46.00024" lon="4.14149">
        <ele>393</ele>
        <time>2026-02-01T13:39:35Z</time>
      </trkpt>
      <trkpt lat="46.0003" lon="4.14109">
        <ele>393</ele>
        <time>2026-02-01T13:40:13Z</time>
      </trkpt>
      <trkpt lat="46.00048" lon="4.14041">
        <ele>393</ele>
        <time>2026-02-01T13:41:21Z</time>
      </trkpt>
      <trkpt lat="46.00062" lon="4.13987">
        <ele>393</ele>
        <time>2026-02-01T13:42:14Z</time>
      </trkpt>
      <trkpt lat="46.00064" lon="4.1397">
        <ele>392</ele>
        <time>2026-02-01T13:42:30Z</time>
      </trkpt>
      <trkpt lat="46.00064" lon="4.13953">
        <ele>391</ele>
        <time>2026-02-01T13:42:46Z</time>
      </trkpt>
      <trkpt lat="46.00067" lon="4.13918">
        <ele>389</ele>
        <time>2026-02-01T13:43:18Z</time>
      </trkpt>
      <trkpt lat="46.00075" lon="4.13877">
        <ele>388</ele>
        <time>2026-02-01T13:43:58Z</time>
      </trkpt>
      <trkpt lat="46.00082" lon="4.13857">
        <ele>388</ele>
        <time>2026-02-01T13:44:19Z</time>
      </trkpt>
      <trkpt lat="46.00139" lon="4.13718">
        <ele>384</ele>
        <time>2026-02-01T13:46:48Z</time>
      </trkpt>
      <trkpt lat="46.00153" lon="4.13683">
        <ele>384</ele>
        <time>2026-02-01T13:47:26Z</time>
      </trkpt>
      <trkpt lat="46.00169" lon="4.13627">
        <ele>385</ele>
        <time>2026-02-01T13:48:22Z</time>
      </trkpt>
      <trkpt lat="46.00176" lon="4.1361">
        <ele>385</ele>
        <time>2026-02-01T13:48:40Z</time>
      </trkpt>
      <trkpt lat="46.00199" lon="4.13576">
        <ele>385</ele>
        <time>2026-02-01T13:49:24Z</time>
      </trkpt>
      <trkpt lat="46.00205" lon="4.13613">
        <ele>385</ele>
        <time>2026-02-01T13:49:59Z</time>
      </trkpt>
      <trkpt lat="46.00214" lon="4.13697">
        <ele>386</ele>
        <time>2026-02-01T13:51:18Z</time>
      </trkpt>
      <trkpt lat="46.00224" lon="4.13768">
        <ele>387</ele>
        <time>2026-02-01T13:52:25Z</time>
      </trkpt>
      <trkpt lat="46.00223" lon="4.13772">
        <ele>387</ele>
        <time>2026-02-01T13:52:29Z</time>
      </trkpt>
      <trkpt lat="46.00227" lon="4.13777">
        <ele>387</ele>
        <time>2026-02-01T13:52:36Z</time>
      </trkpt>
      <trkpt lat="46.00332" lon="4.13821">
        <ele>383</ele>
        <time>2026-02-01T13:55:02Z</time>
      </trkpt>
      <trkpt lat="46.00393" lon="4.13854">
        <ele>382</ele>
        <time>2026-02-01T13:56:29Z</time>
      </trkpt>
      <trkpt lat="46.00487" lon="4.13902">
        <ele>381</ele>
        <time>2026-02-01T13:58:42Z</time>
      </trkpt>
      <trkpt lat="46.00494" lon="4.13903">
        <ele>381</ele>
        <time>2026-02-01T13:58:52Z</time>
      </trkpt>
      <trkpt lat="46.00501" lon="4.13899">
        <ele>381</ele>
        <time>2026-02-01T13:59:02Z</time>
      </trkpt>
      <trkpt lat="46.00509" lon="4.1389">
        <ele>382</ele>
        <time>2026-02-01T13:59:15Z</time>
      </trkpt>
      <trkpt lat="46.00595" lon="4.13768">
        <ele>382</ele>
        <time>2026-02-01T14:01:56Z</time>
      </trkpt>
      <trkpt lat="46.00605" lon="4.13765">
        <ele>383</ele>
        <time>2026-02-01T14:02:10Z</time>
      </trkpt>
      <trkpt lat="46.00613" lon="4.13768">
        <ele>384</ele>
        <time>2026-02-01T14:02:21Z</time>
      </trkpt>
      <trkpt lat="46.00642" lon="4.13806">
        <ele>387</ele>
        <time>2026-02-01T14:03:13Z</time>
      </trkpt>
      <trkpt lat="46.00649" lon="4.13808">
        <ele>388</ele>
        <time>2026-02-01T14:03:23Z</time>
      </trkpt>
      <trkpt lat="46.00737" lon="4.13931">
        <ele>394</ele>
        <time>2026-02-01T14:06:07Z</time>
      </trkpt>
      <trkpt lat="46.00748" lon="4.13934">
        <ele>395</ele>
        <time>2026-02-01T14:06:22Z</time>
      </trkpt>
      <trkpt lat="46.00754" lon="4.13928">
        <ele>395</ele>
        <time>2026-02-01T14:06:31Z</time>
      </trkpt>
      <trkpt lat="46.00775" lon="4.13861">
        <ele>394</ele>
        <time>2026-02-01T14:07:40Z</time>
      </trkpt>
      <trkpt lat="46.00791" lon="4.13824">
        <ele>394</ele>
        <time>2026-02-01T14:08:20Z</time>
      </trkpt>
      <trkpt lat="46.00799" lon="4.13807">
        <ele>393</ele>
        <time>2026-02-01T14:08:39Z</time>
      </trkpt>
      <trkpt lat="46.00805" lon="4.13797">
        <ele>393</ele>
        <time>2026-02-01T14:08:51Z</time>
      </trkpt>
      <trkpt lat="46.0082" lon="4.13783">
        <ele>393</ele>
        <time>2026-02-01T14:09:15Z</time>
      </trkpt>
      <trkpt lat="46.00854" lon="4.13819">
        <ele>394</ele>
        <time>2026-02-01T14:10:11Z</time>
      </trkpt>
      <trkpt lat="46.0087" lon="4.13837">
        <ele>395</ele>
        <time>2026-02-01T14:10:38Z</time>
      </trkpt>
      <trkpt lat="46.00888" lon="4.13854">
        <ele>394</ele>
        <time>2026-02-01T14:11:07Z</time>
      </trkpt>
      <trkpt lat="46.00899" lon="4.1387">
        <ele>394</ele>
        <time>2026-02-01T14:11:28Z</time>
      </trkpt>
      <trkpt lat="46.00907" lon="4.13886">
        <ele>395</ele>
        <time>2026-02-01T14:11:46Z</time>
      </trkpt>
      <trkpt lat="46.00935" lon="4.1395">
        <ele>394</ele>
        <time>2026-02-01T14:12:56Z</time>
      </trkpt>
      <trkpt lat="46.00951" lon="4.13981">
        <ele>393</ele>
        <time>2026-02-01T14:13:32Z</time>
      </trkpt>
      <trkpt lat="46.00978" lon="4.14029">
        <ele>393</ele>
        <time>2026-02-01T14:14:29Z</time>
      </trkpt>
      <trkpt lat="46.00995" lon="4.14057">
        <ele>393</ele>
        <time>2026-02-01T14:15:04Z</time>
      </trkpt>
      <trkpt lat="46.01033" lon="4.14098">
        <ele>395</ele>
        <time>2026-02-01T14:16:07Z</time>
      </trkpt>
      <trkpt lat="46.01047" lon="4.14111">
        <ele>396</ele>
        <time>2026-02-01T14:16:30Z</time>
      </trkpt>
      <trkpt lat="46.01083" lon="4.14135">
        <ele>399</ele>
        <time>2026-02-01T14:17:22Z</time>
      </trkpt>
      <trkpt lat="46.01141" lon="4.1418">
        <ele>402</ele>
        <time>2026-02-01T14:18:50Z</time>
      </trkpt>
      <trkpt lat="46.01167" lon="4.14199">
        <ele>402</ele>
        <time>2026-02-01T14:19:29Z</time>
      </trkpt>
      <trkpt lat="46.01187" lon="4.14213">
        <ele>401</ele>
        <time>2026-02-01T14:19:59Z</time>
      </trkpt>
      <trkpt lat="46.01225" lon="4.14249">
        <ele>399</ele>
        <time>2026-02-01T14:21:00Z</time>
      </trkpt>
      <trkpt lat="46.01248" lon="4.14265">
        <ele>398</ele>
        <time>2026-02-01T14:21:34Z</time>
      </trkpt>
      <trkpt lat="46.01279" lon="4.14278">
        <ele>399</ele>
        <time>2026-02-01T14:22:17Z</time>
      </trkpt>
      <trkpt lat="46.01301" lon="4.14289">
        <ele>400</ele>
        <time>2026-02-01T14:22:48Z</time>
      </trkpt>
      <trkpt lat="46.01322" lon="4.14305">
        <ele>400</ele>
        <time>2026-02-01T14:23:20Z</time>
      </trkpt>
      <trkpt lat="46.01445" lon="4.14416">
        <ele>400</ele>
        <time>2026-02-01T14:26:33Z</time>
      </trkpt>
      <trkpt lat="46.01468" lon="4.1443">
        <ele>399</ele>
        <time>2026-02-01T14:27:07Z</time>
      </trkpt>
      <trkpt lat="46.01476" lon="4.14433">
        <ele>399</ele>
        <time>2026-02-01T14:27:18Z</time>
      </trkpt>
      <trkpt lat="46.01508" lon="4.14438">
        <ele>399</ele>
        <time>2026-02-01T14:28:01Z</time>
      </trkpt>
      <trkpt lat="46.01541" lon="4.1444">
        <ele>399</ele>
        <time>2026-02-01T14:28:45Z</time>
      </trkpt>
      <trkpt lat="46.01546" lon="4.14442">
        <ele>399</ele>
        <time>2026-02-01T14:28:52Z</time>
      </trkpt>
      <trkpt lat="46.01567" lon="4.14413">
        <ele>400</ele>
        <time>2026-02-01T14:29:30Z</time>
      </trkpt>
      <trkpt lat="46.01573" lon="4.14403">
        <ele>400</ele>
        <time>2026-02-01T14:29:43Z</time>
      </trkpt>
      <trkpt lat="46.01579" lon="4.14395">
        <ele>400</ele>
        <time>2026-02-01T14:29:54Z</time>
      </trkpt>
      <trkpt lat="46.0161" lon="4.14368">
        <ele>398</ele>
        <time>2026-02-01T14:30:42Z</time>
      </trkpt>
      <trkpt lat="46.0161" lon="4.14368">
        <ele>398</ele>
        <time>2026-02-01T14:30:42Z</time>
      </trkpt>
      <trkpt lat="46.0163" lon="4.14344">
        <ele>397</ele>
        <time>2026-02-01T14:31:17Z</time>
      </trkpt>
      <trkpt lat="46.01651" lon="4.14308">
        <ele>395</ele>
        <time>2026-02-01T14:32:00Z</time>
      </trkpt>
      <trkpt lat="46.01676" lon="4.14257">
        <ele>392</ele>
        <time>2026-02-01T14:32:58Z</time>
      </trkpt>
      <trkpt lat="46.01683" lon="4.1424">
        <ele>392</ele>
        <time>2026-02-01T14:33:16Z</time>
      </trkpt>
      <trkpt lat="46.01694" lon="4.14213">
        <ele>391</ele>
        <time>2026-02-01T14:33:45Z</time>
      </trkpt>
      <trkpt lat="46.01712" lon="4.14152">
        <ele>388</ele>
        <time>2026-02-01T14:34:47Z</time>
      </trkpt>
      <trkpt lat="46.01735" lon="4.14125">
        <ele>387</ele>
        <time>2026-02-01T14:35:27Z</time>
      </trkpt>
      <trkpt lat="46.01812" lon="4.14052">
        <ele>383</ele>
        <time>2026-02-01T14:37:30Z</time>
      </trkpt>
      <trkpt lat="46.01855" lon="4.13993">
        <ele>382</ele>
        <time>2026-02-01T14:38:49Z</time>
      </trkpt>
      <trkpt lat="46.0187" lon="4.13983">
        <ele>381</ele>
        <time>2026-02-01T14:39:11Z</time>
      </trkpt>
      <trkpt lat="46.01898" lon="4.13932">
        <ele>381</ele>
        <time>2026-02-01T14:40:11Z</time>
      </trkpt>
      <trkpt lat="46.01923" lon="4.13887">
        <ele>380</ele>
        <time>2026-02-01T14:41:04Z</time>
      </trkpt>
      <trkpt lat="46.01873" lon="4.13903">
        <ele>383</ele>
        <time>2026-02-01T14:42:13Z</time>
      </trkpt>
      <trkpt lat="46.01867" lon="4.13883">
        <ele>383</ele>
        <time>2026-02-01T14:42:33Z</time>
      </trkpt>
      <trkpt lat="46.01866" lon="4.13871">
        <ele>383</ele>
        <time>2026-02-01T14:42:44Z</time>
      </trkpt>
      <trkpt lat="46.01866" lon="4.1386">
        <ele>383</ele>
        <time>2026-02-01T14:42:54Z</time>
      </trkpt>
      <trkpt lat="46.01873" lon="4.13823">
        <ele>383</ele>
        <time>2026-02-01T14:43:30Z</time>
      </trkpt>
      <trkpt lat="46.01899" lon="4.13768">
        <ele>382</ele>
        <time>2026-02-01T14:44:32Z</time>
      </trkpt>
      <trkpt lat="46.01902" lon="4.13732">
        <ele>381</ele>
        <time>2026-02-01T14:45:05Z</time>
      </trkpt>
      <trkpt lat="46.01927" lon="4.13653">
        <ele>379</ele>
        <time>2026-02-01T14:46:26Z</time>
      </trkpt>
      <trkpt lat="46.0195" lon="4.13609">
        <ele>373</ele>
        <time>2026-02-01T14:47:17Z</time>
      </trkpt>
      <trkpt lat="46.01965" lon="4.13603">
        <ele>372</ele>
        <time>2026-02-01T14:47:37Z</time>
      </trkpt>
      <trkpt lat="46.01967" lon="4.13601">
        <ele>371</ele>
        <time>2026-02-01T14:47:41Z</time>
      </trkpt>
      <trkpt lat="46.01981" lon="4.13595">
        <ele>370</ele>
        <time>2026-02-01T14:48:00Z</time>
      </trkpt>
      <trkpt lat="46.02006" lon="4.13597">
        <ele>369</ele>
        <time>2026-02-01T14:48:34Z</time>
      </trkpt>
      <trkpt lat="46.02035" lon="4.13584">
        <ele>367</ele>
        <time>2026-02-01T14:49:14Z</time>
      </trkpt>
      <trkpt lat="46.02048" lon="4.13583">
        <ele>366</ele>
        <time>2026-02-01T14:49:32Z</time>
      </trkpt>
      <trkpt lat="46.02074" lon="4.13592">
        <ele>366</ele>
        <time>2026-02-01T14:50:07Z</time>
      </trkpt>
      <trkpt lat="46.02097" lon="4.13607">
        <ele>364</ele>
        <time>2026-02-01T14:50:41Z</time>
      </trkpt>
      <trkpt lat="46.02115" lon="4.13622">
        <ele>363</ele>
        <time>2026-02-01T14:51:09Z</time>
      </trkpt>
      <trkpt lat="46.02159" lon="4.13649">
        <ele>361</ele>
        <time>2026-02-01T14:52:12Z</time>
      </trkpt>
      <trkpt lat="46.02175" lon="4.13653">
        <ele>359</ele>
        <time>2026-02-01T14:52:34Z</time>
      </trkpt>
      <trkpt lat="46.02177" lon="4.13655">
        <ele>359</ele>
        <time>2026-02-01T14:52:37Z</time>
      </trkpt>
      <trkpt lat="46.0219" lon="4.13653">
        <ele>357</ele>
        <time>2026-02-01T14:52:55Z</time>
      </trkpt>
      <trkpt lat="46.02199" lon="4.13658">
        <ele>356</ele>
        <time>2026-02-01T14:53:08Z</time>
      </trkpt>
      <trkpt lat="46.02206" lon="4.13659">
        <ele>355</ele>
        <time>2026-02-01T14:53:17Z</time>
      </trkpt>
      <trkpt lat="46.02213" lon="4.13656">
        <ele>354</ele>
        <time>2026-02-01T14:53:27Z</time>
      </trkpt>
      <trkpt lat="46.02229" lon="4.13655">
        <ele>352</ele>
        <time>2026-02-01T14:53:48Z</time>
      </trkpt>
      <trkpt lat="46.02245" lon="4.13655">
        <ele>350</ele>
        <time>2026-02-01T14:54:10Z</time>
      </trkpt>
      <trkpt lat="46.02259" lon="4.1365">
        <ele>347</ele>
        <time>2026-02-01T14:54:29Z</time>
      </trkpt>
      <trkpt lat="46.02263" lon="4.1365">
        <ele>347</ele>
        <time>2026-02-01T14:54:34Z</time>
      </trkpt>
      <trkpt lat="46.02274" lon="4.13653">
        <ele>345</ele>
        <time>2026-02-01T14:54:49Z</time>
      </trkpt>
      <trkpt lat="46.02283" lon="4.13653">
        <ele>344</ele>
        <time>2026-02-01T14:55:01Z</time>
      </trkpt>
      <trkpt lat="46.02299" lon="4.13644">
        <ele>341</ele>
        <time>2026-02-01T14:55:24Z</time>
      </trkpt>
      <trkpt lat="46.02303" lon="4.13644">
        <ele>340</ele>
        <time>2026-02-01T14:55:29Z</time>
      </trkpt>
      <trkpt lat="46.02348" lon="4.1364">
        <ele>334</ele>
        <time>2026-02-01T14:56:30Z</time>
      </trkpt>
      <trkpt lat="46.02395" lon="4.13653">
        <ele>331</ele>
        <time>2026-02-01T14:57:33Z</time>
      </trkpt>
      <trkpt lat="46.02424" lon="4.13654">
        <ele>329</ele>
        <time>2026-02-01T14:58:12Z</time>
      </trkpt>
      <trkpt lat="46.02458" lon="4.13651">
        <ele>328</ele>
        <time>2026-02-01T14:58:58Z</time>
      </trkpt>
      <trkpt lat="46.02482" lon="4.13644">
        <ele>327</ele>
        <time>2026-02-01T14:59:30Z</time>
      </trkpt>
      <trkpt lat="46.02514" lon="4.13652">
        <ele>327</ele>
        <time>2026-02-01T15:00:14Z</time>
      </trkpt>
      <trkpt lat="46.02519" lon="4.13657">
        <ele>328</ele>
        <time>2026-02-01T15:00:22Z</time>
      </trkpt>
      <trkpt lat="46.02523" lon="4.1366">
        <ele>328</ele>
        <time>2026-02-01T15:00:28Z</time>
      </trkpt>
      <trkpt lat="46.02522" lon="4.13663">
        <ele>328</ele>
        <time>2026-02-01T15:00:31Z</time>
      </trkpt>
      <trkpt lat="46.02527" lon="4.13669">
        <ele>329</ele>
        <time>2026-02-01T15:00:40Z</time>
      </trkpt>
      <trkpt lat="46.02532" lon="4.13681">
        <ele>329</ele>
        <time>2026-02-01T15:00:52Z</time>
      </trkpt>
      <trkpt lat="46.02538" lon="4.13677">
        <ele>330</ele>
        <time>2026-02-01T15:01:01Z</time>
      </trkpt>
      <trkpt lat="46.02543" lon="4.13677">
        <ele>330</ele>
        <time>2026-02-01T15:01:08Z</time>
      </trkpt>
      <trkpt lat="46.02545" lon="4.13692">
        <ele>331</ele>
        <time>2026-02-01T15:01:22Z</time>
      </trkpt>
      <trkpt lat="46.02539" lon="4.13715">
        <ele>331</ele>
        <time>2026-02-01T15:01:45Z</time>
      </trkpt>
      <trkpt lat="46.0254" lon="4.13723">
        <ele>331</ele>
        <time>2026-02-01T15:01:52Z</time>
      </trkpt>
      <trkpt lat="46.02539" lon="4.13733">
        <ele>332</ele>
        <time>2026-02-01T15:02:02Z</time>
      </trkpt>
      <trkpt lat="46.02535" lon="4.13749">
        <ele>331</ele>
        <time>2026-02-01T15:02:18Z</time>
      </trkpt>
      <trkpt lat="46.02533" lon="4.13761">
        <ele>332</ele>
        <time>2026-02-01T15:02:29Z</time>
      </trkpt>
      <trkpt lat="46.02525" lon="4.13772">
        <ele>331</ele>
        <time>2026-02-01T15:02:44Z</time>
      </trkpt>
      <trkpt lat="46.02517" lon="4.13792">
        <ele>331</ele>
        <time>2026-02-01T15:03:05Z</time>
      </trkpt>
      <trkpt lat="46.02509" lon="4.13822">
        <ele>331</ele>
        <time>2026-02-01T15:03:35Z</time>
      </trkpt>
      <trkpt lat="46.02489" lon="4.13891">
        <ele>335</ele>
        <time>2026-02-01T15:04:44Z</time>
      </trkpt>
      <trkpt lat="46.02477" lon="4.13946">
        <ele>337</ele>
        <time>2026-02-01T15:05:38Z</time>
      </trkpt>
      <trkpt lat="46.02472" lon="4.13981">
        <ele>337</ele>
        <time>2026-02-01T15:06:11Z</time>
      </trkpt>
      <trkpt lat="46.02472" lon="4.14003">
        <ele>338</ele>
        <time>2026-02-01T15:06:31Z</time>
      </trkpt>
      <trkpt lat="46.02476" lon="4.14038">
        <ele>341</ele>
        <time>2026-02-01T15:07:04Z</time>
      </trkpt>
      <trkpt lat="46.02476" lon="4.14059">
        <ele>342</ele>
        <time>2026-02-01T15:07:23Z</time>
      </trkpt>
      <trkpt lat="46.02479" lon="4.14071">
        <ele>344</ele>
        <time>2026-02-01T15:07:35Z</time>
      </trkpt>
      <trkpt lat="46.02483" lon="4.141">
        <ele>346</ele>
        <time>2026-02-01T15:08:03Z</time>
      </trkpt>
      <trkpt lat="46.02487" lon="4.14118">
        <ele>348</ele>
        <time>2026-02-01T15:08:20Z</time>
      </trkpt>
      <trkpt lat="46.02494" lon="4.1414">
        <ele>350</ele>
        <time>2026-02-01T15:08:43Z</time>
      </trkpt>
      <trkpt lat="46.02496" lon="4.14139">
        <ele>350</ele>
        <time>2026-02-01T15:08:45Z</time>
      </trkpt>
      <trkpt lat="46.02501" lon="4.14128">
        <ele>351</ele>
        <time>2026-02-01T15:08:58Z</time>
      </trkpt>
      <trkpt lat="46.02526" lon="4.14104">
        <ele>356</ele>
        <time>2026-02-01T15:09:38Z</time>
      </trkpt>
      <trkpt lat="46.02532" lon="4.14095">
        <ele>357</ele>
        <time>2026-02-01T15:09:49Z</time>
      </trkpt>
      <trkpt lat="46.02538" lon="4.14078">
        <ele>358</ele>
        <time>2026-02-01T15:10:07Z</time>
      </trkpt>
      <trkpt lat="46.02545" lon="4.14064">
        <ele>359</ele>
        <time>2026-02-01T15:10:23Z</time>
      </trkpt>
      <trkpt lat="46.02547" lon="4.14056">
        <ele>359</ele>
        <time>2026-02-01T15:10:31Z</time>
      </trkpt>
      <trkpt lat="46.02555" lon="4.14047">
        <ele>360</ele>
        <time>2026-02-01T15:10:44Z</time>
      </trkpt>
      <trkpt lat="46.02568" lon="4.14023">
        <ele>363</ele>
        <time>2026-02-01T15:11:13Z</time>
      </trkpt>
      <trkpt lat="46.02575" lon="4.14006">
        <ele>364</ele>
        <time>2026-02-01T15:11:31Z</time>
      </trkpt>
      <trkpt lat="46.02589" lon="4.13973">
        <ele>364</ele>
        <time>2026-02-01T15:12:07Z</time>
      </trkpt>
      <trkpt lat="46.02599" lon="4.13959">
        <ele>365</ele>
        <time>2026-02-01T15:12:25Z</time>
      </trkpt>
      <trkpt lat="46.02602" lon="4.13959">
        <ele>365</ele>
        <time>2026-02-01T15:12:29Z</time>
      </trkpt>
      <trkpt lat="46.02609" lon="4.13958">
        <ele>366</ele>
        <time>2026-02-01T15:12:39Z</time>
      </trkpt>
      <trkpt lat="46.02617" lon="4.1396">
        <ele>367</ele>
        <time>2026-02-01T15:12:50Z</time>
      </trkpt>
      <trkpt lat="46.02631" lon="4.1396">
        <ele>369</ele>
        <time>2026-02-01T15:13:08Z</time>
      </trkpt>
      <trkpt lat="46.02646" lon="4.13956">
        <ele>370</ele>
        <time>2026-02-01T15:13:29Z</time>
      </trkpt>
      <trkpt lat="46.02724" lon="4.13923">
        <ele>376</ele>
        <time>2026-02-01T15:15:17Z</time>
      </trkpt>
      <trkpt lat="46.02748" lon="4.13907">
        <ele>378</ele>
        <time>2026-02-01T15:15:52Z</time>
      </trkpt>
      <trkpt lat="46.02762" lon="4.13903">
        <ele>378</ele>
        <time>2026-02-01T15:16:11Z</time>
      </trkpt>
      <trkpt lat="46.0277" lon="4.13905">
        <ele>378</ele>
        <time>2026-02-01T15:16:22Z</time>
      </trkpt>
      <trkpt lat="46.0278" lon="4.13914">
        <ele>378</ele>
        <time>2026-02-01T15:16:38Z</time>
      </trkpt>
      <trkpt lat="46.02797" lon="4.13933">
        <ele>379</ele>
        <time>2026-02-01T15:17:07Z</time>
      </trkpt>
      <trkpt lat="46.02783" lon="4.14101">
        <ele>385</ele>
        <time>2026-02-01T15:19:43Z</time>
      </trkpt>
      <trkpt lat="46.02752" lon="4.14314">
        <ele>389</ele>
        <time>2026-02-01T15:23:05Z</time>
      </trkpt>
      <trkpt lat="46.02746" lon="4.14348">
        <ele>390</ele>
        <time>2026-02-01T15:23:38Z</time>
      </trkpt>
      <trkpt lat="46.02751" lon="4.14379">
        <ele>389</ele>
        <time>2026-02-01T15:24:07Z</time>
      </trkpt>
      <trkpt lat="46.03728" lon="4.14193">
        <ele>295</ele>
        <time>2026-02-01T15:46:02Z</time>
      </trkpt>
      <trkpt lat="46.03822" lon="4.14496">
        <ele>300</ele>
        <time>2026-02-01T15:51:10Z</time>
      </trkpt>
      <trkpt lat="46.03893" lon="4.14585">
        <ele>301</ele>
        <time>2026-02-01T15:53:15Z</time>
      </trkpt>
      <trkpt lat="46.0387" lon="4.14784">
        <ele>309</ele>
        <time>2026-02-01T15:56:22Z</time>
      </trkpt>
      <trkpt lat="46.03879" lon="4.14838">
        <ele>310</ele>
        <time>2026-02-01T15:57:14Z</time>
      </trkpt>
      <trkpt lat="46.03864" lon="4.14883">
        <ele>311</ele>
        <time>2026-02-01T15:58:00Z</time>
      </trkpt>
      <trkpt lat="46.03842" lon="4.14896">
        <ele>313</ele>
        <time>2026-02-01T15:58:32Z</time>
      </trkpt>
      <trkpt lat="46.03762" lon="4.15018">
        <ele>320</ele>
        <time>2026-02-01T16:01:07Z</time>
      </trkpt>
      <trkpt lat="46.03694" lon="4.15078">
        <ele>330</ele>
        <time>2026-02-01T16:02:53Z</time>
      </trkpt>
      <trkpt lat="46.03725" lon="4.15218">
        <ele>332</ele>
        <time>2026-02-01T16:05:10Z</time>
      </trkpt>
      <trkpt lat="46.03718" lon="4.15212">
        <ele>333</ele>
        <time>2026-02-01T16:05:20Z</time>
      </trkpt>
      <trkpt lat="46.03702" lon="4.15219">
        <ele>335</ele>
        <time>2026-02-01T16:05:43Z</time>
      </trkpt>
      <trkpt lat="46.0368" lon="4.15225">
        <ele>337</ele>
        <time>2026-02-01T16:06:13Z</time>
      </trkpt>
      <trkpt lat="46.03596" lon="4.15232">
        <ele>343</ele>
        <time>2026-02-01T16:08:05Z</time>
      </trkpt>
      <trkpt lat="46.03582" lon="4.15237">
        <ele>344</ele>
        <time>2026-02-01T16:08:24Z</time>
      </trkpt>
      <trkpt lat="46.03476" lon="4.15315">
        <ele>353</ele>
        <time>2026-02-01T16:11:03Z</time>
      </trkpt>
      <trkpt lat="46.0337" lon="4.15407">
        <ele>365</ele>
        <time>2026-02-01T16:13:48Z</time>
      </trkpt>
      <trkpt lat="46.03357" lon="4.15415">
        <ele>367</ele>
        <time>2026-02-01T16:14:07Z</time>
      </trkpt>
      <trkpt lat="46.03307" lon="4.15423">
        <ele>372</ele>
        <time>2026-02-01T16:15:14Z</time>
      </trkpt>
      <trkpt lat="46.03256" lon="4.15427">
        <ele>376</ele>
        <time>2026-02-01T16:16:22Z</time>
      </trkpt>
      <trkpt lat="46.0323" lon="4.15432">
        <ele>377</ele>
        <time>2026-02-01T16:16:57Z</time>
      </trkpt>
      <trkpt lat="46.03196" lon="4.15443">
        <ele>378</ele>
        <time>2026-02-01T16:17:44Z</time>
      </trkpt>
      <trkpt lat="46.0314" lon="4.15472">
        <ele>381</ele>
        <time>2026-02-01T16:19:03Z</time>
      </trkpt>
      <trkpt lat="46.03005" lon="4.15522">
        <ele>388</ele>
        <time>2026-02-01T16:22:09Z</time>
      </trkpt>
      <trkpt lat="46.02981" lon="4.15532">
        <ele>389</ele>
        <time>2026-02-01T16:22:43Z</time>
      </trkpt>
      <trkpt lat="46.02962" lon="4.15548">
        <ele>390</ele>
        <time>2026-02-01T16:23:12Z</time>
      </trkpt>
      <trkpt lat="46.02948" lon="4.15576">
        <ele>392</ele>
        <time>2026-02-01T16:23:44Z</time>
      </trkpt>
      <trkpt lat="46.02929" lon="4.15617">
        <ele>393</ele>
        <time>2026-02-01T16:24:30Z</time>
      </trkpt>
      <trkpt lat="46.02877" lon="4.15712">
        <ele>395</ele>
        <time>2026-02-01T16:26:22Z</time>
      </trkpt>
      <trkpt lat="46.02833" lon="4.1577">
        <ele>398</ele>
        <time>2026-02-01T16:27:41Z</time>
      </trkpt>
      <trkpt lat="46.02819" lon="4.15783">
        <ele>398</ele>
        <time>2026-02-01T16:28:03Z</time>
      </trkpt>
      <trkpt lat="46.02804" lon="4.15787">
        <ele>399</ele>
        <time>2026-02-01T16:28:24Z</time>
      </trkpt>
      <trkpt lat="46.02592" lon="4.15774">
        <ele>410</ele>
        <time>2026-02-01T16:33:07Z</time>
      </trkpt>
      <trkpt lat="46.02592" lon="4.15788">
        <ele>410</ele>
        <time>2026-02-01T16:33:20Z</time>
      </trkpt>
      <trkpt lat="46.02576" lon="4.15855">
        <ele>411</ele>
        <time>2026-02-01T16:34:26Z</time>
      </trkpt>
      <trkpt lat="46.02536" lon="4.15999">
        <ele>413</ele>
        <time>2026-02-01T16:36:49Z</time>
      </trkpt>
      <trkpt lat="46.02477" lon="4.16288">
        <ele>416</ele>
        <time>2026-02-01T16:41:28Z</time>
      </trkpt>
      <trkpt lat="46.02451" lon="4.16429">
        <ele>418</ele>
        <time>2026-02-01T16:43:44Z</time>
      </trkpt>
      <trkpt lat="46.02434" lon="4.16537">
        <ele>420</ele>
        <time>2026-02-01T16:45:26Z</time>
      </trkpt>
      <trkpt lat="46.02544" lon="4.16646">
        <ele>416</ele>
        <time>2026-02-01T16:48:24Z</time>
      </trkpt>
      <trkpt lat="46.02566" lon="4.16675">
        <ele>415</ele>
        <time>2026-02-01T16:49:04Z</time>
      </trkpt>
      <trkpt lat="46.02599" lon="4.1675">
        <ele>415</ele>
        <time>2026-02-01T16:50:26Z</time>
      </trkpt>
      <trkpt lat="46.02626" lon="4.16797">
        <ele>417</ele>
        <time>2026-02-01T16:51:23Z</time>
      </trkpt>
      <trkpt lat="46.02656" lon="4.16847">
        <ele>419</ele>
        <time>2026-02-01T16:52:24Z</time>
      </trkpt>
      <trkpt lat="46.02689" lon="4.16883">
        <ele>418</ele>
        <time>2026-02-01T16:53:19Z</time>
      </trkpt>
      <trkpt lat="46.02719" lon="4.16905">
        <ele>417</ele>
        <time>2026-02-01T16:54:04Z</time>
      </trkpt>
      <trkpt lat="46.0265" lon="4.17055">
        <ele>422</ele>
        <time>2026-02-01T16:56:51Z</time>
      </trkpt>
      <trkpt lat="46.02616" lon="4.17137">
        <ele>422</ele>
        <time>2026-02-01T16:58:20Z</time>
      </trkpt>
      <trkpt lat="46.02594" lon="4.17183">
        <ele>423</ele>
        <time>2026-02-01T16:59:11Z</time>
      </trkpt>
      <trkpt lat="46.02557" lon="4.1723">
        <ele>424</ele>
        <time>2026-02-01T17:00:17Z</time>
      </trkpt>
      <trkpt lat="46.02505" lon="4.17283">
        <ele>425</ele>
        <time>2026-02-01T17:01:42Z</time>
      </trkpt>
      <trkpt lat="46.02508" lon="4.17303">
        <ele>425</ele>
        <time>2026-02-01T17:02:01Z</time>
      </trkpt>
      <trkpt lat="46.02518" lon="4.17343">
        <ele>424</ele>
        <time>2026-02-01T17:02:41Z</time>
      </trkpt>
      <trkpt lat="46.02527" lon="4.17366">
        <ele>424</ele>
        <time>2026-02-01T17:03:05Z</time>
      </trkpt>
      <trkpt lat="46.02606" lon="4.17566">
        <ele>417</ele>
        <time>2026-02-01T17:06:38Z</time>
      </trkpt>
      <trkpt lat="46.02614" lon="4.17593">
        <ele>417</ele>
        <time>2026-02-01T17:07:05Z</time>
      </trkpt>
      <trkpt lat="46.02625" lon="4.17635">
        <ele>417</ele>
        <time>2026-02-01T17:07:47Z</time>
      </trkpt>
      <trkpt lat="46.02635" lon="4.17663">
        <ele>417</ele>
        <time>2026-02-01T17:08:16Z</time>
      </trkpt>
      <trkpt lat="46.02655" lon="4.1771">
        <ele>419</ele>
        <time>2026-02-01T17:09:07Z</time>
      </trkpt>
      <trkpt lat="46.0267" lon="4.17737">
        <ele>420</ele>
        <time>2026-02-01T17:09:39Z</time>
      </trkpt>
      <trkpt lat="46.02683" lon="4.17755">
        <ele>420</ele>
        <time>2026-02-01T17:10:03Z</time>
      </trkpt>
      <trkpt lat="46.02702" lon="4.17774">
        <ele>420</ele>
        <time>2026-02-01T17:10:34Z</time>
      </trkpt>
      <trkpt lat="46.02731" lon="4.17825">
        <ele>420</ele>
        <time>2026-02-01T17:11:35Z</time>
      </trkpt>
      <trkpt lat="46.02733" lon="4.17827">
        <ele>420</ele>
        <time>2026-02-01T17:11:39Z</time>
      </trkpt>
      <trkpt lat="46.02726" lon="4.17872">
        <ele>419</ele>
        <time>2026-02-01T17:12:21Z</time>
      </trkpt>
      <trkpt lat="46.02719" lon="4.17905">
        <ele>419</ele>
        <time>2026-02-01T17:12:53Z</time>
      </trkpt>
      <trkpt lat="46.02715" lon="4.17928">
        <ele>418</ele>
        <time>2026-02-01T17:13:15Z</time>
      </trkpt>
      <trkpt lat="46.02717" lon="4.17999">
        <ele>415</ele>
        <time>2026-02-01T17:14:21Z</time>
      </trkpt>
      <trkpt lat="46.02713" lon="4.18073">
        <ele>414</ele>
        <time>2026-02-01T17:15:30Z</time>
      </trkpt>
      <trkpt lat="46.02841" lon="4.18165">
        <ele>405</ele>
        <time>2026-02-01T17:18:41Z</time>
      </trkpt>
      <trkpt lat="46.02945" lon="4.18185">
        <ele>394</ele>
        <time>2026-02-01T17:21:01Z</time>
      </trkpt>
      <trkpt lat="46.03041" lon="4.18182">
        <ele>384</ele>
        <time>2026-02-01T17:23:09Z</time>
      </trkpt>
      <trkpt lat="46.03237" lon="4.18278">
        <ele>354</ele>
        <time>2026-02-01T17:27:45Z</time>
      </trkpt>
      <trkpt lat="46.03141" lon="4.18525">
        <ele>348</ele>
        <time>2026-02-01T17:32:07Z</time>
      </trkpt>
      <trkpt lat="46.03178" lon="4.18854">
        <ele>354</ele>
        <time>2026-02-01T17:37:16Z</time>
      </trkpt>
      <trkpt lat="46.03176" lon="4.18872">
        <ele>355</ele>
        <time>2026-02-01T17:37:33Z</time>
      </trkpt>
      <trkpt lat="46.03174" lon="4.18903">
        <ele>355</ele>
        <time>2026-02-01T17:38:02Z</time>
      </trkpt>
      <trkpt lat="46.03175" lon="4.18939">
        <ele>356</ele>
        <time>2026-02-01T17:38:35Z</time>
      </trkpt>
      <trkpt lat="46.03176" lon="4.18947">
        <ele>357</ele>
        <time>2026-02-01T17:38:43Z</time>
      </trkpt>
      <trkpt lat="46.03161" lon="4.18947">
        <ele>355</ele>
        <time>2026-02-01T17:39:03Z</time>
      </trkpt>
      <trkpt lat="46.03125" lon="4.18953">
        <ele>358</ele>
        <time>2026-02-01T17:39:51Z</time>
      </trkpt>
      <trkpt lat="46.03117" lon="4.18948">
        <ele>358</ele>
        <time>2026-02-01T17:40:03Z</time>
      </trkpt>
      <trkpt lat="46.0311" lon="4.18938">
        <ele>359</ele>
        <time>2026-02-01T17:40:16Z</time>
      </trkpt>
      <trkpt lat="46.03105" lon="4.18921">
        <ele>359</ele>
        <time>2026-02-01T17:40:33Z</time>
      </trkpt>
      <trkpt lat="46.03103" lon="4.18906">
        <ele>358</ele>
        <time>2026-02-01T17:40:47Z</time>
      </trkpt>
      <trkpt lat="46.03103" lon="4.18885">
        <ele>358</ele>
        <time>2026-02-01T17:41:07Z</time>
      </trkpt>
      <trkpt lat="46.03102" lon="4.18865">
        <ele>358</ele>
        <time>2026-02-01T17:41:25Z</time>
      </trkpt>
      <trkpt lat="46.031" lon="4.18847">
        <ele>358</ele>
        <time>2026-02-01T17:41:42Z</time>
      </trkpt>
      <trkpt lat="46.03094" lon="4.18832">
        <ele>358</ele>
        <time>2026-02-01T17:41:58Z</time>
      </trkpt>
      <trkpt lat="46.03086" lon="4.18819">
        <ele>358</ele>
        <time>2026-02-01T17:42:14Z</time>
      </trkpt>
      <trkpt lat="46.03078" lon="4.18815">
        <ele>358</ele>
        <time>2026-02-01T17:42:26Z</time>
      </trkpt>
      <trkpt lat="46.03031" lon="4.18801">
        <ele>359</ele>
        <time>2026-02-01T17:43:30Z</time>
      </trkpt>
      <trkpt lat="46.0302" lon="4.18806">
        <ele>360</ele>
        <time>2026-02-01T17:43:45Z</time>
      </trkpt>
      <trkpt lat="46.02996" lon="4.18821">
        <ele>362</ele>
        <time>2026-02-01T17:44:20Z</time>
      </trkpt>
      <trkpt lat="46.02985" lon="4.18823">
        <ele>363</ele>
        <time>2026-02-01T17:44:35Z</time>
      </trkpt>
      <trkpt lat="46.02961" lon="4.18817">
        <ele>364</ele>
        <time>2026-02-01T17:45:07Z</time>
      </trkpt>
      <trkpt lat="46.02955" lon="4.18817">
        <ele>364</ele>
        <time>2026-02-01T17:45:15Z</time>
      </trkpt>
      <trkpt lat="46.0295" lon="4.18821">
        <ele>365</ele>
        <time>2026-02-01T17:45:23Z</time>
      </trkpt>
      <trkpt lat="46.02947" lon="4.18827">
        <ele>366</ele>
        <time>2026-02-01T17:45:30Z</time>
      </trkpt>
      <trkpt lat="46.02949" lon="4.18837">
        <ele>367</ele>
        <time>2026-02-01T17:45:39Z</time>
      </trkpt>
      <trkpt lat="46.02967" lon="4.18864">
        <ele>369</ele>
        <time>2026-02-01T17:46:14Z</time>
      </trkpt>
      <trkpt lat="46.02999" lon="4.18914">
        <ele>375</ele>
        <time>2026-02-01T17:47:17Z</time>
      </trkpt>
      <trkpt lat="46.03002" lon="4.18935">
        <ele>376</ele>
        <time>2026-02-01T17:47:37Z</time>
      </trkpt>
      <trkpt lat="46.02997" lon="4.18956">
        <ele>378</ele>
        <time>2026-02-01T17:47:57Z</time>
      </trkpt>
      <trkpt lat="46.02969" lon="4.18995">
        <ele>383</ele>
        <time>2026-02-01T17:48:49Z</time>
      </trkpt>
      <trkpt lat="46.02958" lon="4.19011">
        <ele>384</ele>
        <time>2026-02-01T17:49:10Z</time>
      </trkpt>
      <trkpt lat="46.02953" lon="4.19029">
        <ele>385</ele>
        <time>2026-02-01T17:49:28Z</time>
      </trkpt>
      <trkpt lat="46.02951" lon="4.19049">
        <ele>386</ele>
        <time>2026-02-01T17:49:47Z</time>
      </trkpt>
      <trkpt lat="46.02954" lon="4.19065">
        <ele>387</ele>
        <time>2026-02-01T17:50:02Z</time>
      </trkpt>
      <trkpt lat="46.02954" lon="4.19076">
        <ele>387</ele>
        <time>2026-02-01T17:50:13Z</time>
      </trkpt>
      <trkpt lat="46.02951" lon="4.1908">
        <ele>388</ele>
        <time>2026-02-01T17:50:18Z</time>
      </trkpt>
      <trkpt lat="46.02945" lon="4.19084">
        <ele>388</ele>
        <time>2026-02-01T17:50:27Z</time>
      </trkpt>
      <trkpt lat="46.0294" lon="4.19084">
        <ele>389</ele>
        <time>2026-02-01T17:50:34Z</time>
      </trkpt>
      <trkpt lat="46.02934" lon="4.19073">
        <ele>389</ele>
        <time>2026-02-01T17:50:46Z</time>
      </trkpt>
      <trkpt lat="46.02926" lon="4.19052">
        <ele>389</ele>
        <time>2026-02-01T17:51:09Z</time>
      </trkpt>
      <trkpt lat="46.02915" lon="4.19036">
        <ele>389</ele>
        <time>2026-02-01T17:51:30Z</time>
      </trkpt>
      <trkpt lat="46.02905" lon="4.19026">
        <ele>389</ele>
        <time>2026-02-01T17:51:46Z</time>
      </trkpt>
      <trkpt lat="46.02892" lon="4.1902">
        <ele>390</ele>
        <time>2026-02-01T17:52:04Z</time>
      </trkpt>
      <trkpt lat="46.02861" lon="4.19022">
        <ele>392</ele>
        <time>2026-02-01T17:52:45Z</time>
      </trkpt>
      <trkpt lat="46.02838" lon="4.19027">
        <ele>394</ele>
        <time>2026-02-01T17:53:16Z</time>
      </trkpt>
      <trkpt lat="46.0282" lon="4.19038">
        <ele>395</ele>
        <time>2026-02-01T17:53:43Z</time>
      </trkpt>
      <trkpt lat="46.028" lon="4.19058">
        <ele>397</ele>
        <time>2026-02-01T17:54:15Z</time>
      </trkpt>
      <trkpt lat="46.02788" lon="4.19084">
        <ele>399</ele>
        <time>2026-02-01T17:54:44Z</time>
      </trkpt>
      <trkpt lat="46.02783" lon="4.19108">
        <ele>400</ele>
        <time>2026-02-01T17:55:07Z</time>
      </trkpt>
      <trkpt lat="46.02786" lon="4.19137">
        <ele>402</ele>
        <time>2026-02-01T17:55:34Z</time>
      </trkpt>
      <trkpt lat="46.02846" lon="4.19439">
        <ele>413</ele>
        <time>2026-02-01T18:00:25Z</time>
      </trkpt>
      <trkpt lat="46.02845" lon="4.19461">
        <ele>413</ele>
        <time>2026-02-01T18:00:46Z</time>
      </trkpt>
      <trkpt lat="46.02825" lon="4.19546">
        <ele>415</ele>
        <time>2026-02-01T18:02:09Z</time>
      </trkpt>
      <trkpt lat="46.02806" lon="4.19622">
        <ele>416</ele>
        <time>2026-02-01T18:03:24Z</time>
      </trkpt>
      <trkpt lat="46.02794" lon="4.1964">
        <ele>417</ele>
        <time>2026-02-01T18:03:47Z</time>
      </trkpt>
      <trkpt lat="46.02785" lon="4.19661">
        <ele>418</ele>
        <time>2026-02-01T18:04:10Z</time>
      </trkpt>
      <trkpt lat="46.02789" lon="4.19673">
        <ele>418</ele>
        <time>2026-02-01T18:04:22Z</time>
      </trkpt>
      <trkpt lat="46.02802" lon="4.19689">
        <ele>417</ele>
        <time>2026-02-01T18:04:45Z</time>
      </trkpt>
      <trkpt lat="46.02812" lon="4.1974">
        <ele>417</ele>
        <time>2026-02-01T18:05:34Z</time>
      </trkpt>
      <trkpt lat="46.02823" lon="4.19763">
        <ele>417</ele>
        <time>2026-02-01T18:06:00Z</time>
      </trkpt>
      <trkpt lat="46.02825" lon="4.19776">
        <ele>416</ele>
        <time>2026-02-01T18:06:12Z</time>
      </trkpt>
      <trkpt lat="46.0284" lon="4.19792">
        <ele>416</ele>
        <time>2026-02-01T18:06:37Z</time>
      </trkpt>
      <trkpt lat="46.02826" lon="4.19796">
        <ele>416</ele>
        <time>2026-02-01T18:06:56Z</time>
      </trkpt>
      <trkpt lat="46.02789" lon="4.19814">
        <ele>415</ele>
        <time>2026-02-01T18:07:48Z</time>
      </trkpt>
      <trkpt lat="46.02772" lon="4.19817">
        <ele>415</ele>
        <time>2026-02-01T18:08:11Z</time>
      </trkpt>
      <trkpt lat="46.02752" lon="4.19813">
        <ele>415</ele>
        <time>2026-02-01T18:08:38Z</time>
      </trkpt>
      <trkpt lat="46.02686" lon="4.19782">
        <ele>410</ele>
        <time>2026-02-01T18:10:11Z</time>
      </trkpt>
      <trkpt lat="46.02666" lon="4.19772">
        <ele>408</ele>
        <time>2026-02-01T18:10:39Z</time>
      </trkpt>
      <trkpt lat="46.02644" lon="4.19755">
        <ele>406</ele>
        <time>2026-02-01T18:11:12Z</time>
      </trkpt>
      <trkpt lat="46.02621" lon="4.19734">
        <ele>404</ele>
        <time>2026-02-01T18:11:49Z</time>
      </trkpt>
      <trkpt lat="46.02596" lon="4.19707">
        <ele>400</ele>
        <time>2026-02-01T18:12:30Z</time>
      </trkpt>
      <trkpt lat="46.0258" lon="4.19685">
        <ele>398</ele>
        <time>2026-02-01T18:13:00Z</time>
      </trkpt>
      <trkpt lat="46.02562" lon="4.19645">
        <ele>394</ele>
        <time>2026-02-01T18:13:44Z</time>
      </trkpt>
      <trkpt lat="46.0255" lon="4.19616">
        <ele>391</ele>
        <time>2026-02-01T18:14:15Z</time>
      </trkpt>
      <trkpt lat="46.02536" lon="4.1959">
        <ele>388</ele>
        <time>2026-02-01T18:14:46Z</time>
      </trkpt>
      <trkpt lat="46.02521" lon="4.19567">
        <ele>385</ele>
        <time>2026-02-01T18:15:15Z</time>
      </trkpt>
      <trkpt lat="46.02505" lon="4.19547">
        <ele>383</ele>
        <time>2026-02-01T18:15:43Z</time>
      </trkpt>
      <trkpt lat="46.02497" lon="4.19524">
        <ele>382</ele>
        <time>2026-02-01T18:16:07Z</time>
      </trkpt>
      <trkpt lat="46.02497" lon="4.19499">
        <ele>383</ele>
        <time>2026-02-01T18:16:30Z</time>
      </trkpt>
      <trkpt lat="46.025" lon="4.19418">
        <ele>377</ele>
        <time>2026-02-01T18:17:45Z</time>
      </trkpt>
      <trkpt lat="46.02509" lon="4.19373">
        <ele>375</ele>
        <time>2026-02-01T18:18:29Z</time>
      </trkpt>
      <trkpt lat="46.02519" lon="4.19358">
        <ele>376</ele>
        <time>2026-02-01T18:18:48Z</time>
      </trkpt>
      <trkpt lat="46.0253" lon="4.19352">
        <ele>377</ele>
        <time>2026-02-01T18:19:04Z</time>
      </trkpt>
      <trkpt lat="46.02546" lon="4.19347">
        <ele>379</ele>
        <time>2026-02-01T18:19:26Z</time>
      </trkpt>
      <trkpt lat="46.02555" lon="4.19331">
        <ele>380</ele>
        <time>2026-02-01T18:19:45Z</time>
      </trkpt>
      <trkpt lat="46.02552" lon="4.1931">
        <ele>380</ele>
        <time>2026-02-01T18:20:05Z</time>
      </trkpt>
      <trkpt lat="46.02543" lon="4.19297">
        <ele>379</ele>
        <time>2026-02-01T18:20:22Z</time>
      </trkpt>
      <trkpt lat="46.02526" lon="4.19295">
        <ele>376</ele>
        <time>2026-02-01T18:20:44Z</time>
      </trkpt>
      <trkpt lat="46.02474" lon="4.19333">
        <ele>369</ele>
        <time>2026-02-01T18:22:02Z</time>
      </trkpt>
      <trkpt lat="46.02464" lon="4.19337">
        <ele>368</ele>
        <time>2026-02-01T18:22:16Z</time>
      </trkpt>
      <trkpt lat="46.02452" lon="4.19341">
        <ele>367</ele>
        <time>2026-02-01T18:22:33Z</time>
      </trkpt>
      <trkpt lat="46.02411" lon="4.19355">
        <ele>364</ele>
        <time>2026-02-01T18:23:29Z</time>
      </trkpt>
      <trkpt lat="46.024" lon="4.19353">
        <ele>366</ele>
        <time>2026-02-01T18:23:44Z</time>
      </trkpt>
      <trkpt lat="46.02397" lon="4.1935">
        <ele>366</ele>
        <time>2026-02-01T18:23:48Z</time>
      </trkpt>
      <trkpt lat="46.02389" lon="4.19377">
        <ele>367</ele>
        <time>2026-02-01T18:24:16Z</time>
      </trkpt>
      <trkpt lat="46.02373" lon="4.19438">
        <ele>370</ele>
        <time>2026-02-01T18:25:16Z</time>
      </trkpt>
      <trkpt lat="46.02364" lon="4.19465">
        <ele>371</ele>
        <time>2026-02-01T18:25:44Z</time>
      </trkpt>
      <trkpt lat="46.02348" lon="4.19501">
        <ele>373</ele>
        <time>2026-02-01T18:26:23Z</time>
      </trkpt>
      <trkpt lat="46.02342" lon="4.19518">
        <ele>375</ele>
        <time>2026-02-01T18:26:41Z</time>
      </trkpt>
      <trkpt lat="46.02339" lon="4.19536">
        <ele>376</ele>
        <time>2026-02-01T18:26:58Z</time>
      </trkpt>
      <trkpt lat="46.02338" lon="4.19551">
        <ele>377</ele>
        <time>2026-02-01T18:27:12Z</time>
      </trkpt>
      <trkpt lat="46.02339" lon="4.19574">
        <ele>378</ele>
        <time>2026-02-01T18:27:34Z</time>
      </trkpt>
      <trkpt lat="46.02349" lon="4.19655">
        <ele>384</ele>
        <time>2026-02-01T18:28:50Z</time>
      </trkpt>
      <trkpt lat="46.02354" lon="4.19706">
        <ele>385</ele>
        <time>2026-02-01T18:29:37Z</time>
      </trkpt>
      <trkpt lat="46.02353" lon="4.19722">
        <ele>386</ele>
        <time>2026-02-01T18:29:52Z</time>
      </trkpt>
      <trkpt lat="46.02349" lon="4.19734">
        <ele>387</ele>
        <time>2026-02-01T18:30:05Z</time>
      </trkpt>
      <trkpt lat="46.02341" lon="4.19749">
        <ele>389</ele>
        <time>2026-02-01T18:30:22Z</time>
      </trkpt>
      <trkpt lat="46.02333" lon="4.19758">
        <ele>390</ele>
        <time>2026-02-01T18:30:36Z</time>
      </trkpt>
      <trkpt lat="46.02321" lon="4.19768">
        <ele>390</ele>
        <time>2026-02-01T18:30:54Z</time>
      </trkpt>
      <trkpt lat="46.02307" lon="4.19774">
        <ele>391</ele>
        <time>2026-02-01T18:31:14Z</time>
      </trkpt>
      <trkpt lat="46.02273" lon="4.1978">
        <ele>393</ele>
        <time>2026-02-01T18:31:59Z</time>
      </trkpt>
      <trkpt lat="46.02229" lon="4.19785">
        <ele>397</ele>
        <time>2026-02-01T18:32:58Z</time>
      </trkpt>
      <trkpt lat="46.02208" lon="4.19789">
        <ele>398</ele>
        <time>2026-02-01T18:33:27Z</time>
      </trkpt>
      <trkpt lat="46.02147" lon="4.1981">
        <ele>403</ele>
        <time>2026-02-01T18:34:50Z</time>
      </trkpt>
      <trkpt lat="46.02118" lon="4.19824">
        <ele>407</ele>
        <time>2026-02-01T18:35:31Z</time>
      </trkpt>
      <trkpt lat="46.02097" lon="4.19839">
        <ele>409</ele>
        <time>2026-02-01T18:36:02Z</time>
      </trkpt>
      <trkpt lat="46.02084" lon="4.19855">
        <ele>411</ele>
        <time>2026-02-01T18:36:25Z</time>
      </trkpt>
      <trkpt lat="46.02064" lon="4.19889">
        <ele>413</ele>
        <time>2026-02-01T18:37:07Z</time>
      </trkpt>
      <trkpt lat="46.02055" lon="4.19911">
        <ele>414</ele>
        <time>2026-02-01T18:37:30Z</time>
      </trkpt>
      <trkpt lat="46.02052" lon="4.19913">
        <ele>414</ele>
        <time>2026-02-01T18:37:35Z</time>
      </trkpt>
      <trkpt lat="46.02048" lon="4.19912">
        <ele>414</ele>
        <time>2026-02-01T18:37:40Z</time>
      </trkpt>
      <trkpt lat="46.02055" lon="4.19931">
        <ele>415</ele>
        <time>2026-02-01T18:38:00Z</time>
      </trkpt>
      <trkpt lat="46.02111" lon="4.20059">
        <ele>419</ele>
        <time>2026-02-01T18:40:20Z</time>
      </trkpt>
      <trkpt lat="46.02119" lon="4.20089">
        <ele>420</ele>
        <time>2026-02-01T18:40:50Z</time>
      </trkpt>
      <trkpt lat="46.02132" lon="4.20121">
        <ele>419</ele>
        <time>2026-02-01T18:41:24Z</time>
      </trkpt>
      <trkpt lat="46.0213" lon="4.20135">
        <ele>419</ele>
        <time>2026-02-01T18:41:38Z</time>
      </trkpt>
      <trkpt lat="46.02112" lon="4.20181">
        <ele>422</ele>
        <time>2026-02-01T18:42:26Z</time>
      </trkpt>
      <trkpt lat="46.02095" lon="4.20234">
        <ele>427</ele>
        <time>2026-02-01T18:43:21Z</time>
      </trkpt>
      <trkpt lat="46.02091" lon="4.20241">
        <ele>428</ele>
        <time>2026-02-01T18:43:29Z</time>
      </trkpt>
      <trkpt lat="46.02081" lon="4.20241">
        <ele>429</ele>
        <time>2026-02-01T18:43:42Z</time>
      </trkpt>
      <trkpt lat="46.02036" lon="4.20251">
        <ele>435</ele>
        <time>2026-02-01T18:44:43Z</time>
      </trkpt>
      <trkpt lat="46.0197" lon="4.2027">
        <ele>442</ele>
        <time>2026-02-01T18:46:13Z</time>
      </trkpt>
      <trkpt lat="46.01906" lon="4.20278">
        <ele>445</ele>
        <time>2026-02-01T18:47:39Z</time>
      </trkpt>
      <trkpt lat="46.01702" lon="4.20302">
        <ele>449</ele>
        <time>2026-02-01T18:52:12Z</time>
      </trkpt>
      <trkpt lat="46.0166" lon="4.20307">
        <ele>450</ele>
        <time>2026-02-01T18:53:08Z</time>
      </trkpt>
      <trkpt lat="46.01628" lon="4.20314">
        <ele>451</ele>
        <time>2026-02-01T18:53:51Z</time>
      </trkpt>
      <trkpt lat="46.01515" lon="4.20365">
        <ele>452</ele>
        <time>2026-02-01T18:56:29Z</time>
      </trkpt>
      <trkpt lat="46.01445" lon="4.2041">
        <ele>453</ele>
        <time>2026-02-01T18:58:12Z</time>
      </trkpt>
      <trkpt lat="46.01366" lon="4.20474">
        <ele>451</ele>
        <time>2026-02-01T19:00:12Z</time>
      </trkpt>
      <trkpt lat="46.01281" lon="4.20564">
        <ele>454</ele>
        <time>2026-02-01T19:02:33Z</time>
      </trkpt>
      <trkpt lat="46.01291" lon="4.20589">
        <ele>453</ele>
        <time>2026-02-01T19:03:00Z</time>
      </trkpt>
      <trkpt lat="46.01297" lon="4.20612">
        <ele>453</ele>
        <time>2026-02-01T19:03:23Z</time>
      </trkpt>
      <trkpt lat="46.01299" lon="4.20636">
        <ele>452</ele>
        <time>2026-02-01T19:03:45Z</time>
      </trkpt>
      <trkpt lat="46.01297" lon="4.20656">
        <ele>452</ele>
        <time>2026-02-01T19:04:04Z</time>
      </trkpt>
      <trkpt lat="46.01291" lon="4.20676">
        <ele>452</ele>
        <time>2026-02-01T19:04:24Z</time>
      </trkpt>
      <trkpt lat="46.01282" lon="4.20694">
        <ele>452</ele>
        <time>2026-02-01T19:04:45Z</time>
      </trkpt>
      <trkpt lat="46.01267" lon="4.20718">
        <ele>454</ele>
        <time>2026-02-01T19:05:15Z</time>
      </trkpt>
      <trkpt lat="46.0126" lon="4.20733">
        <ele>454</ele>
        <time>2026-02-01T19:05:31Z</time>
      </trkpt>
      <trkpt lat="46.01258" lon="4.20745">
        <ele>454</ele>
        <time>2026-02-01T19:05:43Z</time>
      </trkpt>
      <trkpt lat="46.01261" lon="4.20761">
        <ele>454</ele>
        <time>2026-02-01T19:05:58Z</time>
      </trkpt>
      <trkpt lat="46.01266" lon="4.20769">
        <ele>454</ele>
        <time>2026-02-01T19:06:08Z</time>
      </trkpt>
      <trkpt lat="46.01278" lon="4.20775">
        <ele>452</ele>
        <time>2026-02-01T19:06:25Z</time>
      </trkpt>
      <trkpt lat="46.01307" lon="4.20782">
        <ele>449</ele>
        <time>2026-02-01T19:07:04Z</time>
      </trkpt>
      <trkpt lat="46.01317" lon="4.20786">
        <ele>448</ele>
        <time>2026-02-01T19:07:18Z</time>
      </trkpt>
      <trkpt lat="46.01468" lon="4.20908">
        <ele>442</ele>
        <time>2026-02-01T19:11:09Z</time>
      </trkpt>
      <trkpt lat="46.01493" lon="4.20933">
        <ele>442</ele>
        <time>2026-02-01T19:11:50Z</time>
      </trkpt>
      <trkpt lat="46.01505" lon="4.20948">
        <ele>441</ele>
        <time>2026-02-01T19:12:11Z</time>
      </trkpt>
      <trkpt lat="46.01534" lon="4.20998">
        <ele>439</ele>
        <time>2026-02-01T19:13:11Z</time>
      </trkpt>
      <trkpt lat="46.01544" lon="4.21013">
        <ele>439</ele>
        <time>2026-02-01T19:13:31Z</time>
      </trkpt>
      <trkpt lat="46.0154" lon="4.21015">
        <ele>439</ele>
        <time>2026-02-01T19:13:36Z</time>
      </trkpt>
      <trkpt lat="46.01533" lon="4.21015">
        <ele>439</ele>
        <time>2026-02-01T19:13:46Z</time>
      </trkpt>
      <trkpt lat="46.01509" lon="4.21003">
        <ele>439</ele>
        <time>2026-02-01T19:14:20Z</time>
      </trkpt>
      <trkpt lat="46.01495" lon="4.21002">
        <ele>439</ele>
        <time>2026-02-01T19:14:38Z</time>
      </trkpt>
      <trkpt lat="46.01468" lon="4.21006">
        <ele>439</ele>
        <time>2026-02-01T19:15:14Z</time>
      </trkpt>
      <trkpt lat="46.01462" lon="4.20999">
        <ele>440</ele>
        <time>2026-02-01T19:15:25Z</time>
      </trkpt>
      <trkpt lat="46.01454" lon="4.20996">
        <ele>440</ele>
        <time>2026-02-01T19:15:36Z</time>
      </trkpt>
      <trkpt lat="46.01408" lon="4.20991">
        <ele>442</ele>
        <time>2026-02-01T19:16:37Z</time>
      </trkpt>
      <trkpt lat="46.01356" lon="4.20974">
        <ele>445</ele>
        <time>2026-02-01T19:17:49Z</time>
      </trkpt>
      <trkpt lat="46.01308" lon="4.20962">
        <ele>448</ele>
        <time>2026-02-01T19:18:54Z</time>
      </trkpt>
      <trkpt lat="46.01212" lon="4.20959">
        <ele>454</ele>
        <time>2026-02-01T19:21:02Z</time>
      </trkpt>
      <trkpt lat="46.01144" lon="4.20961">
        <ele>456</ele>
        <time>2026-02-01T19:22:32Z</time>
      </trkpt>
      <trkpt lat="46.01047" lon="4.20974">
        <ele>458</ele>
        <time>2026-02-01T19:24:42Z</time>
      </trkpt>
      <trkpt lat="46.01011" lon="4.20992">
        <ele>459</ele>
        <time>2026-02-01T19:25:33Z</time>
      </trkpt>
      <trkpt lat="46.00978" lon="4.21017">
        <ele>458</ele>
        <time>2026-02-01T19:26:23Z</time>
      </trkpt>
      <trkpt lat="46.00947" lon="4.21028">
        <ele>457</ele>
        <time>2026-02-01T19:27:06Z</time>
      </trkpt>
      <trkpt lat="46.00741" lon="4.21076">
        <ele>452</ele>
        <time>2026-02-01T19:31:44Z</time>
      </trkpt>
      <trkpt lat="46.00679" lon="4.21083">
        <ele>449</ele>
        <time>2026-02-01T19:33:07Z</time>
      </trkpt>
      <trkpt lat="46.00623" lon="4.2108">
        <ele>448</ele>
        <time>2026-02-01T19:34:22Z</time>
      </trkpt>
      <trkpt lat="46.00595" lon="4.21072">
        <ele>448</ele>
        <time>2026-02-01T19:35:00Z</time>
      </trkpt>
      <trkpt lat="46.00579" lon="4.21062">
        <ele>447</ele>
        <time>2026-02-01T19:35:23Z</time>
      </trkpt>
      <trkpt lat="46.00561" lon="4.21062">
        <ele>447</ele>
        <time>2026-02-01T19:35:47Z</time>
      </trkpt>
      <trkpt lat="46.00475" lon="4.2109">
        <ele>443</ele>
        <time>2026-02-01T19:37:45Z</time>
      </trkpt>
      <trkpt lat="46.00396" lon="4.21109">
        <ele>441</ele>
        <time>2026-02-01T19:39:32Z</time>
      </trkpt>
      <trkpt lat="46.00356" lon="4.21116">
        <ele>440</ele>
        <time>2026-02-01T19:40:26Z</time>
      </trkpt>
      <trkpt lat="46.00305" lon="4.21116">
        <ele>440</ele>
        <time>2026-02-01T19:41:34Z</time>
      </trkpt>
      <trkpt lat="46.00275" lon="4.21123">
        <ele>439</ele>
        <time>2026-02-01T19:42:14Z</time>
      </trkpt>
      <trkpt lat="46.00217" lon="4.21162">
        <ele>437</ele>
        <time>2026-02-01T19:43:40Z</time>
      </trkpt>
      <trkpt lat="46.00222" lon="4.2114">
        <ele>439</ele>
        <time>2026-02-01T19:44:01Z</time>
      </trkpt>
      <trkpt lat="46.00248" lon="4.21076">
        <ele>443</ele>
        <time>2026-02-01T19:45:10Z</time>
      </trkpt>
      <trkpt lat="46.00273" lon="4.21021">
        <ele>444</ele>
        <time>2026-02-01T19:46:11Z</time>
      </trkpt>
      <trkpt lat="46.00288" lon="4.20987">
        <ele>444</ele>
        <time>2026-02-01T19:46:48Z</time>
      </trkpt>
      <trkpt lat="46.00302" lon="4.20946">
        <ele>443</ele>
        <time>2026-02-01T19:47:30Z</time>
      </trkpt>
      <trkpt lat="46.00337" lon="4.20854">
        <ele>440</ele>
        <time>2026-02-01T19:49:08Z</time>
      </trkpt>
      <trkpt lat="46.00364" lon="4.20797">
        <ele>438</ele>
        <time>2026-02-01T19:50:12Z</time>
      </trkpt>
      <trkpt lat="46.00382" lon="4.20765">
        <ele>437</ele>
        <time>2026-02-01T19:50:50Z</time>
      </trkpt>
      <trkpt lat="46.00484" lon="4.20529">
        <ele>440</ele>
        <time>2026-02-01T19:55:07Z</time>
      </trkpt>
      <trkpt lat="46.00519" lon="4.20419">
        <ele>442</ele>
        <time>2026-02-01T19:57:00Z</time>
      </trkpt>
      <trkpt lat="46.00498" lon="4.20372">
        <ele>441</ele>
        <time>2026-02-01T19:57:51Z</time>
      </trkpt>
      <trkpt lat="46.0049" lon="4.20357">
        <ele>441</ele>
        <time>2026-02-01T19:58:09Z</time>
      </trkpt>
      <trkpt lat="46.00477" lon="4.20339">
        <ele>441</ele>
        <time>2026-02-01T19:58:33Z</time>
      </trkpt>
      <trkpt lat="46.00445" lon="4.20299">
        <ele>441</ele>
        <time>2026-02-01T19:59:30Z</time>
      </trkpt>
      <trkpt lat="46.00414" lon="4.2027">
        <ele>443</ele>
        <time>2026-02-01T20:00:19Z</time>
      </trkpt>
      <trkpt lat="46.0035" lon="4.20222">
        <ele>446</ele>
        <time>2026-02-01T20:01:55Z</time>
      </trkpt>
      <trkpt lat="46.00337" lon="4.2021">
        <ele>446</ele>
        <time>2026-02-01T20:02:16Z</time>
      </trkpt>
      <trkpt lat="46.00316" lon="4.20186">
        <ele>447</ele>
        <time>2026-02-01T20:02:52Z</time>
      </trkpt>
      <trkpt lat="46.00305" lon="4.20178">
        <ele>448</ele>
        <time>2026-02-01T20:03:08Z</time>
      </trkpt>
      <trkpt lat="46.00295" lon="4.20173">
        <ele>448</ele>
        <time>2026-02-01T20:03:22Z</time>
      </trkpt>
      <trkpt lat="46.00283" lon="4.20171">
        <ele>449</ele>
        <time>2026-02-01T20:03:38Z</time>
      </trkpt>
      <trkpt lat="46.00271" lon="4.20174">
        <ele>449</ele>
        <time>2026-02-01T20:03:55Z</time>
      </trkpt>
      <trkpt lat="46.00223" lon="4.20189">
        <ele>450</ele>
        <time>2026-02-01T20:05:00Z</time>
      </trkpt>
      <trkpt lat="46.00216" lon="4.20188">
        <ele>450</ele>
        <time>2026-02-01T20:05:09Z</time>
      </trkpt>
      <trkpt lat="46.0021" lon="4.20186">
        <ele>450</ele>
        <time>2026-02-01T20:05:18Z</time>
      </trkpt>
      <trkpt lat="46.00205" lon="4.2018">
        <ele>450</ele>
        <time>2026-02-01T20:05:26Z</time>
      </trkpt>
      <trkpt lat="46.00198" lon="4.20161">
        <ele>450</ele>
        <time>2026-02-01T20:05:46Z</time>
      </trkpt>
      <trkpt lat="46.00178" lon="4.20119">
        <ele>449</ele>
        <time>2026-02-01T20:06:34Z</time>
      </trkpt>
      <trkpt lat="46.00147" lon="4.20052">
        <ele>446</ele>
        <time>2026-02-01T20:07:48Z</time>
      </trkpt>
      <trkpt lat="46.0014" lon="4.20032">
        <ele>445</ele>
        <time>2026-02-01T20:08:09Z</time>
      </trkpt>
      <trkpt lat="46.00134" lon="4.20006">
        <ele>444</ele>
        <time>2026-02-01T20:08:34Z</time>
      </trkpt>
      <trkpt lat="46.00125" lon="4.19952">
        <ele>443</ele>
        <time>2026-02-01T20:09:26Z</time>
      </trkpt>
      <trkpt lat="46.00118" lon="4.1992">
        <ele>443</ele>
        <time>2026-02-01T20:09:57Z</time>
      </trkpt>
      <trkpt lat="46.00105" lon="4.19878">
        <ele>443</ele>
        <time>2026-02-01T20:10:39Z</time>
      </trkpt>
      <trkpt lat="46.00092" lon="4.19846">
        <ele>444</ele>
        <time>2026-02-01T20:11:14Z</time>
      </trkpt>
      <trkpt lat="46.00063" lon="4.19785">
        <ele>444</ele>
        <time>2026-02-01T20:12:22Z</time>
      </trkpt>
      <trkpt lat="46.00056" lon="4.19774">
        <ele>445</ele>
        <time>2026-02-01T20:12:36Z</time>
      </trkpt>
      <trkpt lat="46.00048" lon="4.19766">
        <ele>446</ele>
        <time>2026-02-01T20:12:49Z</time>
      </trkpt>
      <trkpt lat="46.00039" lon="4.19761">
        <ele>446</ele>
        <time>2026-02-01T20:13:02Z</time>
      </trkpt>
      <trkpt lat="46.00037" lon="4.19721">
        <ele>448</ele>
        <time>2026-02-01T20:13:39Z</time>
      </trkpt>
      <trkpt lat="46.00032" lon="4.19688">
        <ele>451</ele>
        <time>2026-02-01T20:14:11Z</time>
      </trkpt>
      <trkpt lat="46.00032" lon="4.19646">
        <ele>452</ele>
        <time>2026-02-01T20:14:49Z</time>
      </trkpt>
      <trkpt lat="46.00036" lon="4.19609">
        <ele>451</ele>
        <time>2026-02-01T20:15:24Z</time>
      </trkpt>
      <trkpt lat="46.00031" lon="4.19581">
        <ele>452</ele>
        <time>2026-02-01T20:15:51Z</time>
      </trkpt>
      <trkpt lat="46.00009" lon="4.1954">
        <ele>452</ele>
        <time>2026-02-01T20:16:39Z</time>
      </trkpt>
      <trkpt lat="45.99987" lon="4.19503">
        <ele>450</ele>
        <time>2026-02-01T20:17:24Z</time>
      </trkpt>
      <trkpt lat="45.99969" lon="4.19482">
        <ele>450</ele>
        <time>2026-02-01T20:17:55Z</time>
      </trkpt>
      <trkpt lat="45.99943" lon="4.19444">
        <ele>450</ele>
        <time>2026-02-01T20:18:45Z</time>
      </trkpt>
      <trkpt lat="45.99922" lon="4.19398">
        <ele>449</ele>
        <time>2026-02-01T20:19:36Z</time>
      </trkpt>
      <trkpt lat="45.99892" lon="4.19341">
        <ele>443</ele>
        <time>2026-02-01T20:20:42Z</time>
      </trkpt>
      <trkpt lat="45.99879" lon="4.19321">
        <ele>441</ele>
        <time>2026-02-01T20:21:07Z</time>
      </trkpt>
      <trkpt lat="45.99861" lon="4.19307">
        <ele>440</ele>
        <time>2026-02-01T20:21:35Z</time>
      </trkpt>
      <trkpt lat="45.99803" lon="4.19278">
        <ele>442</ele>
        <time>2026-02-01T20:22:56Z</time>
      </trkpt>
      <trkpt lat="45.99782" lon="4.19278">
        <ele>444</ele>
        <time>2026-02-01T20:23:25Z</time>
      </trkpt>
      <trkpt lat="45.9976" lon="4.1928">
        <ele>447</ele>
        <time>2026-02-01T20:23:54Z</time>
      </trkpt>
      <trkpt lat="45.99741" lon="4.19289">
        <ele>449</ele>
        <time>2026-02-01T20:24:21Z</time>
      </trkpt>
      <trkpt lat="45.99716" lon="4.19288">
        <ele>450</ele>
        <time>2026-02-01T20:24:54Z</time>
      </trkpt>
      <trkpt lat="45.9969" lon="4.19296">
        <ele>452</ele>
        <time>2026-02-01T20:25:29Z</time>
      </trkpt>
      <trkpt lat="45.99659" lon="4.19311">
        <ele>454</ele>
        <time>2026-02-01T20:26:13Z</time>
      </trkpt>
      <trkpt lat="45.9961" lon="4.19341">
        <ele>456</ele>
        <time>2026-02-01T20:27:24Z</time>
      </trkpt>
      <trkpt lat="45.99588" lon="4.19343">
        <ele>457</ele>
        <time>2026-02-01T20:27:54Z</time>
      </trkpt>
      <trkpt lat="45.99556" lon="4.19351">
        <ele>457</ele>
        <time>2026-02-01T20:28:37Z</time>
      </trkpt>
      <trkpt lat="45.99532" lon="4.1935">
        <ele>456</ele>
        <time>2026-02-01T20:29:09Z</time>
      </trkpt>
      <trkpt lat="45.99506" lon="4.19355">
        <ele>456</ele>
        <time>2026-02-01T20:29:44Z</time>
      </trkpt>
      <trkpt lat="45.99482" lon="4.19344">
        <ele>454</ele>
        <time>2026-02-01T20:30:18Z</time>
      </trkpt>
      <trkpt lat="45.99442" lon="4.19329">
        <ele>450</ele>
        <time>2026-02-01T20:31:13Z</time>
      </trkpt>
      <trkpt lat="45.99402" lon="4.19323">
        <ele>445</ele>
        <time>2026-02-01T20:32:06Z</time>
      </trkpt>
      <trkpt lat="45.99358" lon="4.19307">
        <ele>438</ele>
        <time>2026-02-01T20:33:07Z</time>
      </trkpt>
      <trkpt lat="45.99323" lon="4.19302">
        <ele>433</ele>
        <time>2026-02-01T20:33:54Z</time>
      </trkpt>
      <trkpt lat="45.99292" lon="4.19287">
        <ele>430</ele>
        <time>2026-02-01T20:34:38Z</time>
      </trkpt>
      <trkpt lat="45.99268" lon="4.19254">
        <ele>427</ele>
        <time>2026-02-01T20:35:22Z</time>
      </trkpt>
      <trkpt lat="45.99244" lon="4.19236">
        <ele>423</ele>
        <time>2026-02-01T20:35:58Z</time>
      </trkpt>
      <trkpt lat="45.99215" lon="4.19221">
        <ele>419</ele>
        <time>2026-02-01T20:36:39Z</time>
      </trkpt>
      <trkpt lat="45.99169" lon="4.19194">
        <ele>413</ele>
        <time>2026-02-01T20:37:45Z</time>
      </trkpt>
      <trkpt lat="45.99169" lon="4.19194">
        <ele>413</ele>
        <time>2026-02-01T20:37:45Z</time>
      </trkpt>
      <trkpt lat="45.99194" lon="4.19184">
        <ele>415</ele>
        <time>2026-02-01T20:38:20Z</time>
      </trkpt>
      <trkpt lat="45.99217" lon="4.19148">
        <ele>416</ele>
        <time>2026-02-01T20:39:05Z</time>
      </trkpt>
      <trkpt lat="45.99264" lon="4.19099">
        <ele>417</ele>
        <time>2026-02-01T20:40:23Z</time>
      </trkpt>
      <trkpt lat="45.99272" lon="4.19089">
        <ele>417</ele>
        <time>2026-02-01T20:40:37Z</time>
      </trkpt>
      <trkpt lat="45.99295" lon="4.19045">
        <ele>415</ele>
        <time>2026-02-01T20:41:28Z</time>
      </trkpt>
      <trkpt lat="45.99304" lon="4.19032">
        <ele>414</ele>
        <time>2026-02-01T20:41:45Z</time>
      </trkpt>
      <trkpt lat="45.99315" lon="4.19008">
        <ele>413</ele>
        <time>2026-02-01T20:42:12Z</time>
      </trkpt>
      <trkpt lat="45.99348" lon="4.18958">
        <ele>411</ele>
        <time>2026-02-01T20:43:16Z</time>
      </trkpt>
      <trkpt lat="45.9938" lon="4.18919">
        <ele>409</ele>
        <time>2026-02-01T20:44:12Z</time>
      </trkpt>
      <trkpt lat="45.99433" lon="4.18865">
        <ele>404</ele>
        <time>2026-02-01T20:45:38Z</time>
      </trkpt>
      <trkpt lat="45.99475" lon="4.18833">
        <ele>399</ele>
        <time>2026-02-01T20:46:42Z</time>
      </trkpt>
      <trkpt lat="45.99485" lon="4.18829">
        <ele>398</ele>
        <time>2026-02-01T20:46:55Z</time>
      </trkpt>
      <trkpt lat="45.99511" lon="4.18826">
        <ele>396</ele>
        <time>2026-02-01T20:47:30Z</time>
      </trkpt>
      <trkpt lat="45.99547" lon="4.18817">
        <ele>391</ele>
        <time>2026-02-01T20:48:19Z</time>
      </trkpt>
      <trkpt lat="45.9955" lon="4.18811">
        <ele>390</ele>
        <time>2026-02-01T20:48:26Z</time>
      </trkpt>
      <trkpt lat="45.99529" lon="4.18788">
        <ele>389</ele>
        <time>2026-02-01T20:49:01Z</time>
      </trkpt>
      <trkpt lat="45.99513" lon="4.18774">
        <ele>388</ele>
        <time>2026-02-01T20:49:26Z</time>
      </trkpt>
      <trkpt lat="45.99501" lon="4.18759">
        <ele>386</ele>
        <time>2026-02-01T20:49:47Z</time>
      </trkpt>
      <trkpt lat="45.99468" lon="4.18741">
        <ele>386</ele>
        <time>2026-02-01T20:50:34Z</time>
      </trkpt>
      <trkpt lat="45.99418" lon="4.18711">
        <ele>385</ele>
        <time>2026-02-01T20:51:47Z</time>
      </trkpt>
      <trkpt lat="45.99394" lon="4.18689">
        <ele>381</ele>
        <time>2026-02-01T20:52:25Z</time>
      </trkpt>
      <trkpt lat="45.99388" lon="4.18685">
        <ele>380</ele>
        <time>2026-02-01T20:52:33Z</time>
      </trkpt>
      <trkpt lat="45.99382" lon="4.18683">
        <ele>379</ele>
        <time>2026-02-01T20:52:42Z</time>
      </trkpt>
      <trkpt lat="45.9935" lon="4.18679">
        <ele>377</ele>
        <time>2026-02-01T20:53:25Z</time>
      </trkpt>
      <trkpt lat="45.9934" lon="4.18676">
        <ele>376</ele>
        <time>2026-02-01T20:53:38Z</time>
      </trkpt>
      <trkpt lat="45.99324" lon="4.18668">
        <ele>374</ele>
        <time>2026-02-01T20:54:01Z</time>
      </trkpt>
      <trkpt lat="45.9927" lon="4.18631">
        <ele>362</ele>
        <time>2026-02-01T20:55:21Z</time>
      </trkpt>
      <trkpt lat="45.99231" lon="4.18624">
        <ele>357</ele>
        <time>2026-02-01T20:56:13Z</time>
      </trkpt>
      <trkpt lat="45.99216" lon="4.18618">
        <ele>355</ele>
        <time>2026-02-01T20:56:34Z</time>
      </trkpt>
      <trkpt lat="45.99179" lon="4.18598">
        <ele>348</ele>
        <time>2026-02-01T20:57:27Z</time>
      </trkpt>
      <trkpt lat="45.99133" lon="4.18591">
        <ele>346</ele>
        <time>2026-02-01T20:58:28Z</time>
      </trkpt>
      <trkpt lat="45.99124" lon="4.18588">
        <ele>345</ele>
        <time>2026-02-01T20:58:41Z</time>
      </trkpt>
      <trkpt lat="45.99038" lon="4.18549">
        <ele>342</ele>
        <time>2026-02-01T21:00:41Z</time>
      </trkpt>
      <trkpt lat="45.99008" lon="4.18531">
        <ele>340</ele>
        <time>2026-02-01T21:01:24Z</time>
      </trkpt>
      <trkpt lat="45.98998" lon="4.18517">
        <ele>338</ele>
        <time>2026-02-01T21:01:43Z</time>
      </trkpt>
      <trkpt lat="45.98989" lon="4.185">
        <ele>336</ele>
        <time>2026-02-01T21:02:03Z</time>
      </trkpt>
      <trkpt lat="45.98983" lon="4.18484">
        <ele>335</ele>
        <time>2026-02-01T21:02:20Z</time>
      </trkpt>
      <trkpt lat="45.98993" lon="4.18482">
        <ele>335</ele>
        <time>2026-02-01T21:02:33Z</time>
      </trkpt>
      <trkpt lat="45.99005" lon="4.18476">
        <ele>335</ele>
        <time>2026-02-01T21:02:50Z</time>
      </trkpt>
      <trkpt lat="45.99032" lon="4.18461">
        <ele>335</ele>
        <time>2026-02-01T21:03:29Z</time>
      </trkpt>
      <trkpt lat="45.99057" lon="4.18439">
        <ele>336</ele>
        <time>2026-02-01T21:04:08Z</time>
      </trkpt>
      <trkpt lat="45.99066" lon="4.18429">
        <ele>336</ele>
        <time>2026-02-01T21:04:23Z</time>
      </trkpt>
      <trkpt lat="45.9908" lon="4.18425">
        <ele>337</ele>
        <time>2026-02-01T21:04:42Z</time>
      </trkpt>
      <trkpt lat="45.99224" lon="4.18341">
        <ele>357</ele>
        <time>2026-02-01T21:08:09Z</time>
      </trkpt>
      <trkpt lat="45.99235" lon="4.18337">
        <ele>359</ele>
        <time>2026-02-01T21:08:24Z</time>
      </trkpt>
      <trkpt lat="45.99249" lon="4.18335">
        <ele>362</ele>
        <time>2026-02-01T21:08:43Z</time>
      </trkpt>
      <trkpt lat="45.99254" lon="4.18329">
        <ele>362</ele>
        <time>2026-02-01T21:08:52Z</time>
      </trkpt>
      <trkpt lat="45.99268" lon="4.18309">
        <ele>363</ele>
        <time>2026-02-01T21:09:18Z</time>
      </trkpt>
      <trkpt lat="45.99285" lon="4.18279">
        <ele>365</ele>
        <time>2026-02-01T21:09:54Z</time>
      </trkpt>
      <trkpt lat="45.99312" lon="4.18231">
        <ele>370</ele>
        <time>2026-02-01T21:10:51Z</time>
      </trkpt>
      <trkpt lat="45.99331" lon="4.182">
        <ele>374</ele>
        <time>2026-02-01T21:11:30Z</time>
      </trkpt>
      <trkpt lat="45.99355" lon="4.18169">
        <ele>378</ele>
        <time>2026-02-01T21:12:13Z</time>
      </trkpt>
      <trkpt lat="45.99357" lon="4.18164">
        <ele>378</ele>
        <time>2026-02-01T21:12:18Z</time>
      </trkpt>
      <trkpt lat="45.99358" lon="4.18155">
        <ele>379</ele>
        <time>2026-02-01T21:12:27Z</time>
      </trkpt>
      <trkpt lat="45.99347" lon="4.18071">
        <ele>380</ele>
        <time>2026-02-01T21:13:46Z</time>
      </trkpt>
      <trkpt lat="45.99346" lon="4.18056">
        <ele>381</ele>
        <time>2026-02-01T21:14:00Z</time>
      </trkpt>
      <trkpt lat="45.99349" lon="4.18037">
        <ele>382</ele>
        <time>2026-02-01T21:14:18Z</time>
      </trkpt>
      <trkpt lat="45.99359" lon="4.17986">
        <ele>387</ele>
        <time>2026-02-01T21:15:07Z</time>
      </trkpt>
      <trkpt lat="45.9936" lon="4.17978">
        <ele>387</ele>
        <time>2026-02-01T21:15:15Z</time>
      </trkpt>
      <trkpt lat="45.99359" lon="4.17935">
        <ele>387</ele>
        <time>2026-02-01T21:15:54Z</time>
      </trkpt>
      <trkpt lat="45.99363" lon="4.17885">
        <ele>390</ele>
        <time>2026-02-01T21:16:41Z</time>
      </trkpt>
      <trkpt lat="45.99364" lon="4.17879">
        <ele>390</ele>
        <time>2026-02-01T21:16:47Z</time>
      </trkpt>
      <trkpt lat="45.9937" lon="4.17863">
        <ele>391</ele>
        <time>2026-02-01T21:17:04Z</time>
      </trkpt>
      <trkpt lat="45.99368" lon="4.17859">
        <ele>391</ele>
        <time>2026-02-01T21:17:08Z</time>
      </trkpt>
      <trkpt lat="45.99365" lon="4.17835">
        <ele>392</ele>
        <time>2026-02-01T21:17:31Z</time>
      </trkpt>
      <trkpt lat="45.99363" lon="4.17818">
        <ele>392</ele>
        <time>2026-02-01T21:17:47Z</time>
      </trkpt>
      <trkpt lat="45.99361" lon="4.17814">
        <ele>392</ele>
        <time>2026-02-01T21:17:51Z</time>
      </trkpt>
      <trkpt lat="45.99357" lon="4.17809">
        <ele>392</ele>
        <time>2026-02-01T21:17:58Z</time>
      </trkpt>
      <trkpt lat="45.99343" lon="4.178">
        <ele>391</ele>
        <time>2026-02-01T21:18:19Z</time>
      </trkpt>
      <trkpt lat="45.99335" lon="4.17794">
        <ele>390</ele>
        <time>2026-02-01T21:18:31Z</time>
      </trkpt>
      <trkpt lat="45.99331" lon="4.17789">
        <ele>390</ele>
        <time>2026-02-01T21:18:38Z</time>
      </trkpt>
      <trkpt lat="45.99315" lon="4.17763">
        <ele>391</ele>
        <time>2026-02-01T21:19:10Z</time>
      </trkpt>
      <trkpt lat="45.9928" lon="4.1772">
        <ele>391</ele>
        <time>2026-02-01T21:20:12Z</time>
      </trkpt>
      <trkpt lat="45.99303" lon="4.17708">
        <ele>392</ele>
        <time>2026-02-01T21:20:44Z</time>
      </trkpt>
      <trkpt lat="45.99323" lon="4.17701">
        <ele>393</ele>
        <time>2026-02-01T21:21:12Z</time>
      </trkpt>
      <trkpt lat="45.99334" lon="4.177">
        <ele>394</ele>
        <time>2026-02-01T21:21:26Z</time>
      </trkpt>
      <trkpt lat="45.99345" lon="4.177">
        <ele>395</ele>
        <time>2026-02-01T21:21:41Z</time>
      </trkpt>
      <trkpt lat="45.99355" lon="4.17701">
        <ele>396</ele>
        <time>2026-02-01T21:21:54Z</time>
      </trkpt>
      <trkpt lat="45.99369" lon="4.17706">
        <ele>398</ele>
        <time>2026-02-01T21:22:14Z</time>
      </trkpt>
      <trkpt lat="45.99374" lon="4.17689">
        <ele>399</ele>
        <time>2026-02-01T21:22:31Z</time>
      </trkpt>
      <trkpt lat="45.99378" lon="4.17683">
        <ele>400</ele>
        <time>2026-02-01T21:22:39Z</time>
      </trkpt>
      <trkpt lat="45.99384" lon="4.17677">
        <ele>401</ele>
        <time>2026-02-01T21:22:48Z</time>
      </trkpt>
      <trkpt lat="45.994" lon="4.17689">
        <ele>402</ele>
        <time>2026-02-01T21:23:12Z</time>
      </trkpt>
      <trkpt lat="45.99425" lon="4.17696">
        <ele>405</ele>
        <time>2026-02-01T21:23:46Z</time>
      </trkpt>
      <trkpt lat="45.99449" lon="4.177">
        <ele>408</ele>
        <time>2026-02-01T21:24:19Z</time>
      </trkpt>
      <trkpt lat="45.99565" lon="4.17405">
        <ele>427</ele>
        <time>2026-02-01T21:29:33Z</time>
      </trkpt>
      <trkpt lat="45.99595" lon="4.17464">
        <ele>428</ele>
        <time>2026-02-01T21:30:41Z</time>
      </trkpt>
      <trkpt lat="45.9972" lon="4.1753">
        <ele>435</ele>
        <time>2026-02-01T21:33:38Z</time>
      </trkpt>
      <trkpt lat="45.9972" lon="4.1753">
        <ele>435</ele>
        <time>2026-02-01T21:33:38Z</time>
      </trkpt>
      <trkpt lat="45.99792" lon="4.17569">
        <ele>436</ele>
        <time>2026-02-01T21:35:21Z</time>
      </trkpt>
      <trkpt lat="45.99824" lon="4.1759">
        <ele>436</ele>
        <time>2026-02-01T21:36:08Z</time>
      </trkpt>
      <trkpt lat="45.9985" lon="4.1761">
        <ele>436</ele>
        <time>2026-02-01T21:36:47Z</time>
      </trkpt>
      <trkpt lat="45.9989" lon="4.17633">
        <ele>436</ele>
        <time>2026-02-01T21:37:45Z</time>
      </trkpt>
    </trkseg>
  </trk>
</gpx>